Home > Products > Valid Products > TAF

000
FTUS46 KPQR 270243 AAA
TAFEUG
TAF AMD
KEUG 270243Z 2703/2724 VRB03KT 1/4SM FG VV002
     FM271900 18003KT 4SM BR OVC009
     FM272300 19004KT 5SM BR SCT010 OVC050=



000
FTUS46 KPQR 270243 AAA
TAFEUG
TAF AMD
KEUG 270243Z 2703/2724 VRB03KT 1/4SM FG VV002
     FM271900 18003KT 4SM BR OVC009
     FM272300 19004KT 5SM BR SCT010 OVC050=



000
FTUS46 KPQR 270229 AAA
TAFPDX
TAF AMD
KPDX 270229Z 2702/2724 12008KT P6SM SCT002 BKN200
     FM270500 VRB03KT 2SM BR SCT008 SCT200
     FM270900 00000KT 1/2SM FG OVC005
     FM271700 22003KT 5SM BR SCT009 BKN100
     FM272000 25003KT P6SM SCT015 OVC050=



000
FTUS46 KPQR 270229 AAA
TAFPDX
TAF AMD
KPDX 270229Z 2702/2724 12008KT P6SM SCT002 BKN200
     FM270500 VRB03KT 2SM BR SCT008 SCT200
     FM270900 00000KT 1/2SM FG OVC005
     FM271700 22003KT 5SM BR SCT009 BKN100
     FM272000 25003KT P6SM SCT015 OVC050=



000
FTUS46 KPQR 270216 AAA
TAFHIO
TAF AMD
KHIO 270216Z 2702/2724 00000KT 1/4SM FG VV002
     FM272100 VRB03KT 2SM BR BKN002=



000
FTUS46 KPQR 270201 AAA
TAFAST
TAF AMD
KAST 270201Z 2702/2724 18004KT 6SM BR BKN008 OVC015
     FM271800 26006KT 6SM BR OVC015=



000
FTUS46 KPQR 270201 AAA
TAFAST
TAF AMD
KAST 270201Z 2702/2724 18004KT 6SM BR BKN008 OVC015
     FM271800 26006KT 6SM BR OVC015=



000
FTUS46 KPQR 262323
TAFPDX
TAF
KPDX 262323Z 2700/2724 08008KT P6SM SCT002 SCT200
     FM270200 VRB03KT 2SM BR SCT008 SCT200
     FM270900 00000KT 1/2SM FG OVC005
     FM271700 22003KT 5SM BR SCT009 BKN100
     FM272000 25003KT P6SM SCT015 OVC050=



000
FTUS46 KPQR 262323
TAFEUG
TAF
KEUG 262323Z 2700/2724 VRB03KT 6SM BR SCT003 BKN200
     FM270500 VRB03KT 1/2SM FG VV002
     FM271900 18003KT 4SM BR OVC009
     FM272300 19004KT 5SM BR SCT010 OVC050=



000
FTUS46 KPQR 262323
TAFAST
TAF
KAST 262323Z 2700/2724 21012KT P6SM SCT200
     FM270200 19008KT 6SM BR SCT015 OVC050
     FM270700 18004KT 5SM BR SCT008 OVC012
     FM271800 26006KT 6SM BR OVC015=



000
FTUS46 KPQR 262323
TAFHIO
TAF
KHIO 262323Z 2700/2724 00000KT 1SM BR OVC002
      TEMPO 2700/2702 3SM BR SCT002 OVC006
     FM270300 00000KT 1/2SM FG VV002=



000
FTUS46 KPQR 262323
TAFONP
TAF
KONP 262323Z 2700/2724 21009KT 5SM BR SCT015 SCT200
     FM270300 20008KT 4SM BR SCT015 OVC050
     FM270700 19009KT 4SM BR SCT009 OVC012
     FM271900 26005KT 5SM BR OVC015=



000
FTUS46 KPQR 262323
TAFONP
TAF
KONP 262323Z 2700/2724 21009KT 5SM BR SCT015 SCT200
     FM270300 20008KT 4SM BR SCT015 OVC050
     FM270700 19009KT 4SM BR SCT009 OVC012
     FM271900 26005KT 5SM BR OVC015=



000
FTUS46 KPQR 262323
TAFTTD
TAF
KTTD 262323Z 2700/2724 10009KT P6SM FEW002 SCT200
     FM271400 VRB03KT 6SM BR OVC015
     FM272000 VRB04KT P6SM OVC020=



000
FTUS46 KPQR 262323
TAFTTD
TAF
KTTD 262323Z 2700/2724 10009KT P6SM FEW002 SCT200
     FM271400 VRB03KT 6SM BR OVC015
     FM272000 VRB04KT P6SM OVC020=



000
FTUS46 KPQR 262323
TAFPDX
TAF
KPDX 262323Z 2700/2724 08008KT P6SM SCT002 SCT200
     FM270200 VRB03KT 2SM BR SCT008 SCT200
     FM270900 00000KT 1/2SM FG OVC005
     FM271700 22003KT 5SM BR SCT009 BKN100
     FM272000 25003KT P6SM SCT015 OVC050=



000
FTUS46 KPQR 262323
TAFSLE
TAF
KSLE 262323Z 2700/2724 08004KT 4SM BR SCT003 BKN200
     FM270200 00000KT 2SM BR BKN004
     FM270700 00000KT 1/2SM FG VV002
     FM272000 18003KT 3SM BR OVC009
     FM272200 18005KT 4SM BR OVC015=



000
FTUS46 KPQR 262323
TAFAST
TAF
KAST 262323Z 2700/2724 21012KT P6SM SCT200
     FM270200 19008KT 6SM BR SCT015 OVC050
     FM270700 18004KT 5SM BR SCT008 OVC012
     FM271800 26006KT 6SM BR OVC015=



000
FTUS46 KPQR 262323
TAFEUG
TAF
KEUG 262323Z 2700/2724 VRB03KT 6SM BR SCT003 BKN200
     FM270500 VRB03KT 1/2SM FG VV002
     FM271900 18003KT 4SM BR OVC009
     FM272300 19004KT 5SM BR SCT010 OVC050=



000
FTUS46 KPQR 262323
TAFSLE
TAF
KSLE 262323Z 2700/2724 08004KT 4SM BR SCT003 BKN200
     FM270200 00000KT 2SM BR BKN004
     FM270700 00000KT 1/2SM FG VV002
     FM272000 18003KT 3SM BR OVC009
     FM272200 18005KT 4SM BR OVC015=



000
FTUS46 KPQR 262323
TAFHIO
TAF
KHIO 262323Z 2700/2724 00000KT 1SM BR OVC002
      TEMPO 2700/2702 3SM BR SCT002 OVC006
     FM270300 00000KT 1/2SM FG VV002=



000
FTUS46 KPQR 262055 AAB
TAFPDX
TAF AMD
KPDX 262055Z 2621/2718 VRB03KT P6SM SCT002 BKN200
     FM270200 00000KT 3SM BR SCT004 BKN200
     FM270900 25003KT 1SM BR OVC005
     FM271700 22003KT 5SM BR SCT009 BKN150=



000
FTUS46 KPQR 262055 AAB
TAFPDX
TAF AMD
KPDX 262055Z 2621/2718 VRB03KT P6SM SCT002 BKN200
     FM270200 00000KT 3SM BR SCT004 BKN200
     FM270900 25003KT 1SM BR OVC005
     FM271700 22003KT 5SM BR SCT009 BKN150=



000
FTUS46 KPQR 262005 AAA
TAFEUG
TAF AMD
KEUG 262005Z 2620/2718 VRB03KT 6SM BR SCT003 BKN200
     FM270300 VRB03KT 1/2SM FG VV002=



000
FTUS46 KPQR 262005 AAA
TAFEUG
TAF AMD
KEUG 262005Z 2620/2718 VRB03KT 6SM BR SCT003 BKN200
     FM270300 VRB03KT 1/2SM FG VV002=



000
FTUS46 KPQR 262004 AAA
TAFSLE
TAF AMD
KSLE 262004Z 2620/2718 08004KT 4SM BR SCT003 BKN200
     FM270100 00000KT 2SM BR BKN004
     FM270400 00000KT 1/2SM FG VV002=



000
FTUS46 KPQR 262003 AAB
TAFONP
TAF AMD
KONP 262003Z 2620/2718 19013KT 6SM BR SCT008
     FM262200 18009KT 3SM BR BKN004 OVC008
     FM270000 19009KT 5SM BR BKN008 OVC012=



000
FTUS46 KPQR 262003 AAB
TAFONP
TAF AMD
KONP 262003Z 2620/2718 19013KT 6SM BR SCT008
     FM262200 18009KT 3SM BR BKN004 OVC008
     FM270000 19009KT 5SM BR BKN008 OVC012=



000
FTUS46 KPQR 261911 AAA
TAFPDX
TAF AMD
KPDX 261911Z 2619/2718 27003KT 6SM BR SCT002
      TEMPO 2619/2620 1/4SM FG VV002
     FM262000 10003KT P6SM SCT002 SCT250
     FM270200 00000KT 1/2SM FG VV002=



000
FTUS46 KPQR 261832 AAA
TAFONP
TAF AMD
KONP 261832Z 2619/2718 17009KT 5SM BR SCT008
     FM262100 18009KT 3SM BR BKN004 OVC008
     FM270000 19009KT 5SM BR BKN008 OVC012=



000
FTUS46 KPQR 261832 AAA
TAFONP
TAF AMD
KONP 261832Z 2619/2718 17009KT 5SM BR SCT008
     FM262100 18009KT 3SM BR BKN004 OVC008
     FM270000 19009KT 5SM BR BKN008 OVC012=



000
FTUS46 KPQR 261728
TAFONP
TAF
KONP 261728Z 2618/2718 17009KT P6SM SCT008
     FM262100 18009KT 3SM BR BKN004 OVC008
     FM270000 19009KT 5SM BR BKN008 OVC012=



000
FTUS46 KPQR 261728
TAFAST
TAF
KAST 261728Z 2618/2718 15004KT 6SM BR FEW008
     FM262200 19006KT 5SM BR BKN008 OVC010
     FM270500 18004KT 6SM BR SCT008 OVC012=



000
FTUS46 KPQR 261728
TAFEUG
TAF
KEUG 261728Z 2618/2718 VRB03KT 1/2SM FG VV002=



000
FTUS46 KPQR 261728
TAFPDX
TAF
KPDX 261728Z 2618/2718 27003KT 1/4SM FG VV002
     FM261930 VRB03KT 1SM BR BKN002
     FM262100 10003KT P6SM SCT002 SCT250
     FM270200 00000KT 1/2SM FG VV002=



000
FTUS46 KPQR 261728
TAFTTD
TAF
KTTD 261728Z 2618/2718 10009KT P6SM FEW002=



000
FTUS46 KPQR 261728
TAFSLE
TAF
KSLE 261728Z 2618/2718 00000KT 1/2SM FG VV002
     FM262200 00000KT 2SM BR BKN004
     FM270100 00000KT 1/2SM FG VV002=



000
FTUS46 KPQR 261728
TAFHIO
TAF
KHIO 261728Z 2618/2718 00000KT 1/4SM FG VV002
     FM262300 VRB03KT 2SM BR SCT003 BKN005
     FM270000 VRB03KT 5SM BR SCT002
     FM270200 00000KT 1/2SM FG VV002=



000
FTUS46 KPQR 261728
TAFHIO
TAF
KHIO 261728Z 2618/2718 00000KT 1/4SM FG VV002
     FM262300 VRB03KT 2SM BR SCT003 BKN005
     FM270000 VRB03KT 5SM BR SCT002
     FM270200 00000KT 1/2SM FG VV002=



000
FTUS46 KPQR 261728
TAFEUG
TAF
KEUG 261728Z 2618/2718 VRB03KT 1/2SM FG VV002=



000
FTUS46 KPQR 261728
TAFTTD
TAF
KTTD 261728Z 2618/2718 10009KT P6SM FEW002=



000
FTUS46 KPQR 261728
TAFONP
TAF
KONP 261728Z 2618/2718 17009KT P6SM SCT008
     FM262100 18009KT 3SM BR BKN004 OVC008
     FM270000 19009KT 5SM BR BKN008 OVC012=



000
FTUS46 KPQR 261728
TAFPDX
TAF
KPDX 261728Z 2618/2718 27003KT 1/4SM FG VV002
     FM261930 VRB03KT 1SM BR BKN002
     FM262100 10003KT P6SM SCT002 SCT250
     FM270200 00000KT 1/2SM FG VV002=



000
FTUS46 KPQR 261728
TAFSLE
TAF
KSLE 261728Z 2618/2718 00000KT 1/2SM FG VV002
     FM262200 00000KT 2SM BR BKN004
     FM270100 00000KT 1/2SM FG VV002=



000
FTUS46 KPQR 261728
TAFAST
TAF
KAST 261728Z 2618/2718 15004KT 6SM BR FEW008
     FM262200 19006KT 5SM BR BKN008 OVC010
     FM270500 18004KT 6SM BR SCT008 OVC012=



000
FTUS46 KPQR 261414 AAA
TAFPDX
TAF AMD
KPDX 261414Z 2614/2712 27003KT 1/4SM FG VV002
      TEMPO 2615/2619 VRB04KT 1SM BR SCT002
     FM261900 VRB03KT 1SM BR BKN002
     FM262100 10003KT P6SM SCT002 SCT250
     FM270200 00000KT 1/2SM FG VV002=



000
FTUS46 KPQR 261414 AAA
TAFPDX
TAF AMD
KPDX 261414Z 2614/2712 27003KT 1/4SM FG VV002
      TEMPO 2615/2619 VRB04KT 1SM BR SCT002
     FM261900 VRB03KT 1SM BR BKN002
     FM262100 10003KT P6SM SCT002 SCT250
     FM270200 00000KT 1/2SM FG VV002=



000
FTUS46 KPQR 261120
TAFEUG
TAF
KEUG 261120Z 2612/2712 VRB03KT 1/2SM FG VV002=



000
FTUS46 KPQR 261120
TAFTTD
TAF
KTTD 261120Z 2612/2712 10009KT P6SM FEW002=



000
FTUS46 KPQR 261120
TAFTTD
TAF
KTTD 261120Z 2612/2712 10009KT P6SM FEW002=



000
FTUS46 KPQR 261120
TAFPDX
TAF
KPDX 261120Z 2612/2712 09004KT P6SM FEW002
      TEMPO 2612/2615 29003KT 1/2SM FG VV002
     FM261500 VRB03KT 1/2SM FG VV002
      TEMPO 2615/2619 09004KT 6SM BR FEW002
     FM261900 VRB03KT 1SM BR BKN002
     FM262100 10003KT P6SM SCT002 SCT250
     FM270200 00000KT 1/2SM FG VV002=



000
FTUS46 KPQR 261120
TAFHIO
TAF
KHIO 261120Z 2612/2712 00000KT 1/4SM FG VV002
     FM262300 VRB03KT 2SM BR BKN003
     FM270000 VRB03KT 5SM BR SCT002
     FM270200 00000KT 1/2SM FG VV002=



000
FTUS46 KPQR 261120
TAFONP
TAF
KONP 261120Z 2612/2712 14004KT P6SM SKC
     FM261800 17009KT 6SM BR FEW004 SCT008
     FM262100 18009KT 3SM BR BKN004 OVC008
     FM270000 19009KT 5SM BR BKN008 OVC012=



000
FTUS46 KPQR 261120
TAFSLE
TAF
KSLE 261120Z 2612/2712 00000KT 1/2SM FG VV002
     FM262200 00000KT 2SM BR BKN004
     FM270100 00000KT 1/2SM FG VV002=



000
FTUS46 KPQR 261120
TAFHIO
TAF
KHIO 261120Z 2612/2712 00000KT 1/4SM FG VV002
     FM262300 VRB03KT 2SM BR BKN003
     FM270000 VRB03KT 5SM BR SCT002
     FM270200 00000KT 1/2SM FG VV002=



000
FTUS46 KPQR 261120
TAFSLE
TAF
KSLE 261120Z 2612/2712 00000KT 1/2SM FG VV002
     FM262200 00000KT 2SM BR BKN004
     FM270100 00000KT 1/2SM FG VV002=



000
FTUS46 KPQR 261120
TAFEUG
TAF
KEUG 261120Z 2612/2712 VRB03KT 1/2SM FG VV002=



000
FTUS46 KPQR 261120
TAFPDX
TAF
KPDX 261120Z 2612/2712 09004KT P6SM FEW002
      TEMPO 2612/2615 29003KT 1/2SM FG VV002
     FM261500 VRB03KT 1/2SM FG VV002
      TEMPO 2615/2619 09004KT 6SM BR FEW002
     FM261900 VRB03KT 1SM BR BKN002
     FM262100 10003KT P6SM SCT002 SCT250
     FM270200 00000KT 1/2SM FG VV002=



000
FTUS46 KPQR 261120
TAFAST
TAF
KAST 261120Z 2612/2712 00000KT 1/2SM FG VV002
      TEMPO 2612/2616 6SM BR FEW002
     FM261600 09004KT 3SM BR BKN004
     FM261700 15004KT P6SM FEW008
     FM270000 19006KT 5SM BR BKN008 OVC010
     FM270500 18004KT 6SM BR SCT008 OVC012=



000
FTUS46 KPQR 261120
TAFONP
TAF
KONP 261120Z 2612/2712 14004KT P6SM SKC
     FM261800 17009KT 6SM BR FEW004 SCT008
     FM262100 18009KT 3SM BR BKN004 OVC008
     FM270000 19009KT 5SM BR BKN008 OVC012=



000
FTUS46 KPQR 261026 AAB
TAFAST
TAF AMD
KAST 261026Z 2610/2706 00000KT 1/2SM FG VV002
      TEMPO 2610/2614 6SM BR FEW002
     FM261700 09004KT 3SM BR BKN004
     FM261800 15004KT P6SM FEW008
     FM270000 19006KT 5SM BR BKN008 OVC010
     FM270500 18004KT 6SM BR SCT008 OVC012=



000
FTUS46 KPQR 261026 AAB
TAFAST
TAF AMD
KAST 261026Z 2610/2706 00000KT 1/2SM FG VV002
      TEMPO 2610/2614 6SM BR FEW002
     FM261700 09004KT 3SM BR BKN004
     FM261800 15004KT P6SM FEW008
     FM270000 19006KT 5SM BR BKN008 OVC010
     FM270500 18004KT 6SM BR SCT008 OVC012=



000
FTUS46 KPQR 261023 AAA
TAFONP
TAF AMD
KONP 261023Z 2610/2706 14004KT P6SM SKC
     FM261800 17009KT 6SM BR FEW004 SCT008
     FM270000 19009KT 5SM BR BKN008 OVC010=



000
FTUS46 KPQR 261023 AAA
TAFONP
TAF AMD
KONP 261023Z 2610/2706 14004KT P6SM SKC
     FM261800 17009KT 6SM BR FEW004 SCT008
     FM270000 19009KT 5SM BR BKN008 OVC010=



000
FTUS46 KPQR 260952 AAC
TAFPDX
TAF AMD
KPDX 260952Z 2610/2706 09004KT P6SM FEW002
      TEMPO 2610/2614 00000KT 1/2SM FG VV002
     FM261400 VRB03KT 1/2SM FG VV002
     FM262030 VRB03KT 1SM BR BKN002
     FM262100 00000KT P6SM SCT003 SCT250=



000
FTUS46 KPQR 260952 AAC
TAFPDX
TAF AMD
KPDX 260952Z 2610/2706 09004KT P6SM FEW002
      TEMPO 2610/2614 00000KT 1/2SM FG VV002
     FM261400 VRB03KT 1/2SM FG VV002
     FM262030 VRB03KT 1SM BR BKN002
     FM262100 00000KT P6SM SCT003 SCT250=



000
FTUS46 KPQR 260951 AAB
TAFPDX
TAF AMD
KPDX 260951Z 2610/2706 00000KT 1/2SM FG VV002
     FM262030 VRB03KT 1SM BR BKN002
     FM262100 00000KT P6SM SCT003 SCT250=



000
FTUS46 KPQR 260951 AAB
TAFPDX
TAF AMD
KPDX 260951Z 2610/2706 00000KT 1/2SM FG VV002
     FM262030 VRB03KT 1SM BR BKN002
     FM262100 00000KT P6SM SCT003 SCT250=



000
FTUS46 KPQR 260748 AAA
TAFAST
TAF AMD
KAST 260748Z 2608/2706 00000KT 1/4SM FG VV002
     FM261700 09004KT 3SM BR BKN004
     FM261900 09004KT P6SM SCT250=



000
FTUS46 KPQR 260748 AAA
TAFAST
TAF AMD
KAST 260748Z 2608/2706 00000KT 1/4SM FG VV002
     FM261700 09004KT 3SM BR BKN004
     FM261900 09004KT P6SM SCT250=



000
FTUS46 KPQR 260746 AAA
TAFTTD
TAF AMD
KTTD 260746Z 2608/2706 10009KT 6SM BR SCT002
     FM261200 00000KT 1/4SM FG VV002
     FM261800 VRB03KT 3SM BR BKN003
     FM261900 VRB04KT P6SM SCT250=



000
FTUS46 KPQR 260524 AAA
TAFPDX
TAF AMD
KPDX 260524Z 2605/2706 00000KT 1/4SM FG VV002
     FM262030 VRB03KT 1SM BR BKN002
     FM262100 00000KT P6SM SCT003 SCT250=



000
FTUS46 KPQR 260524 AAA
TAFPDX
TAF AMD
KPDX 260524Z 2605/2706 00000KT 1/4SM FG VV002
     FM262030 VRB03KT 1SM BR BKN002
     FM262100 00000KT P6SM SCT003 SCT250=



000
FTUS46 KPQR 260520
TAFPDX
TAF
KPDX 260520Z 2606/2706 00000KT 1/2SM FG VV002
     FM262030 VRB03KT 1SM BR BKN002
     FM262100 00000KT P6SM SCT003 SCT250=



000
FTUS46 KPQR 260520
TAFHIO
TAF
KHIO 260520Z 2606/2706 00000KT 1/4SM FG VV002
     FM262300 VRB03KT 2SM BR BKN003
     FM270000 VRB03KT P6SM SCT003 SCT250=



000
FTUS46 KPQR 260520
TAFTTD
TAF
KTTD 260520Z 2606/2706 30004KT 4SM BR SCT002
     FM260700 00000KT 1/4SM FG VV002
     FM261800 VRB03KT 3SM BR BKN003
     FM261900 VRB04KT P6SM SCT250=



000
FTUS46 KPQR 260520
TAFONP
TAF
KONP 260520Z 2606/2706 08008KT P6SM BKN250=



000
FTUS46 KPQR 260520
TAFAST
TAF
KAST 260520Z 2606/2706 09004KT P6SM SCT250=



000
FTUS46 KPQR 260520
TAFAST
TAF
KAST 260520Z 2606/2706 09004KT P6SM SCT250=



000
FTUS46 KPQR 260520
TAFSLE
TAF
KSLE 260520Z 2606/2706 00000KT 1/4SM FG VV002
     FM262200 00000KT 2SM BR BKN003
     FM270000 VRB03KT P6SM SCT003 SCT250=



000
FTUS46 KPQR 260520
TAFONP
TAF
KONP 260520Z 2606/2706 08008KT P6SM BKN250=



000
FTUS46 KPQR 260520
TAFEUG
TAF
KEUG 260520Z 2606/2706 VRB02KT 1/4SM FG VV002=



000
FTUS46 KPQR 260520
TAFTTD
TAF
KTTD 260520Z 2606/2706 30004KT 4SM BR SCT002
     FM260700 00000KT 1/4SM FG VV002
     FM261800 VRB03KT 3SM BR BKN003
     FM261900 VRB04KT P6SM SCT250=



000
FTUS46 KPQR 260520
TAFHIO
TAF
KHIO 260520Z 2606/2706 00000KT 1/4SM FG VV002
     FM262300 VRB03KT 2SM BR BKN003
     FM270000 VRB03KT P6SM SCT003 SCT250=



000
FTUS46 KPQR 260520
TAFSLE
TAF
KSLE 260520Z 2606/2706 00000KT 1/4SM FG VV002
     FM262200 00000KT 2SM BR BKN003
     FM270000 VRB03KT P6SM SCT003 SCT250=



000
FTUS46 KPQR 260520
TAFEUG
TAF
KEUG 260520Z 2606/2706 VRB02KT 1/4SM FG VV002=



000
FTUS46 KPQR 260520
TAFPDX
TAF
KPDX 260520Z 2606/2706 00000KT 1/2SM FG VV002
     FM262030 VRB03KT 1SM BR BKN002
     FM262100 00000KT P6SM SCT003 SCT250=



000
FTUS46 KPQR 260245 AAB
TAFPDX
TAF AMD
KPDX 260245Z 2602/2624 00000KT 1/4SM FG VV002
     FM262030 VRB03KT 1/2SM FG BKN002
     FM262100 00000KT P6SM SCT003 SCT250=



000
FTUS46 KPQR 260245 AAB
TAFPDX
TAF AMD
KPDX 260245Z 2602/2624 00000KT 1/4SM FG VV002
     FM262030 VRB03KT 1/2SM FG BKN002
     FM262100 00000KT P6SM SCT003 SCT250=



000
FTUS46 KPQR 260201 AAA
TAFHIO
TAF AMD
KHIO 260201Z 2602/2624 00000KT 1/4SM FG VV002
     FM262300 VRB03KT 2SM BR BKN003=



000
FTUS46 KPQR 260201 AAA
TAFHIO
TAF AMD
KHIO 260201Z 2602/2624 00000KT 1/4SM FG VV002
     FM262300 VRB03KT 2SM BR BKN003=



000
FTUS46 KPQR 260200 AAA
TAFEUG
TAF AMD
KEUG 260200Z 2602/2624 VRB02KT 1/4SM FG VV002=



000
FTUS46 KPQR 260200 AAA
TAFEUG
TAF AMD
KEUG 260200Z 2602/2624 VRB02KT 1/4SM FG VV002=



000
FTUS46 KPQR 260200 AAA
TAFSLE
TAF AMD
KSLE 260200Z 2602/2624 00000KT 1/4SM FG VV002
     FM262200 00000KT 2SM BR BKN003=



000
FTUS46 KPQR 260200 AAA
TAFSLE
TAF AMD
KSLE 260200Z 2602/2624 00000KT 1/4SM FG VV002
     FM262200 00000KT 2SM BR BKN003=



000
FTUS46 KPQR 260101 AAA
TAFPDX
TAF AMD
KPDX 260101Z 2601/2624 VRB03KT 1/4SM FG BKN002
     FM260200 00000KT 1/4SM FG VV002
     FM262030 VRB03KT 1/2SM FG BKN002
     FM262100 00000KT P6SM SCT003 SCT250=



000
FTUS46 KPQR 260101 AAA
TAFPDX
TAF AMD
KPDX 260101Z 2601/2624 VRB03KT 1/4SM FG BKN002
     FM260200 00000KT 1/4SM FG VV002
     FM262030 VRB03KT 1/2SM FG BKN002
     FM262100 00000KT P6SM SCT003 SCT250=



000
FTUS46 KPQR 252342
TAFHIO
TAF
KHIO 252342Z 2600/2624 VRB03KT P6SM SCT003
     FM260300 00000KT 2SM BR BKN004
     FM260500 00000KT 1/4SM FG VV002
     FM262300 VRB03KT 2SM BR BKN003=



000
FTUS46 KPQR 252342
TAFSLE
TAF
KSLE 252342Z 2600/2624 VRB02KT 6SM BR SCT004
     FM260300 00000KT 2SM BR OVC004
     FM260700 00000KT 1/4SM FG VV002
     FM262200 00000KT 2SM BR BKN003=



000
FTUS46 KPQR 252342
TAFAST
TAF
KAST 252342Z 2600/2624 09004KT P6SM SCT250=



000
FTUS46 KPQR 252342
TAFTTD
TAF
KTTD 252342Z 2600/2624 30004KT P6SM FEW002 BKN250
     FM260400 16004KT 3SM BR OVC007
     FM260500 00000KT 1/4SM FG VV002
     FM261800 VRB03KT 3SM BR BKN003
     FM261900 VRB04KT P6SM SCT250=



000
FTUS46 KPQR 252342
TAFPDX
TAF
KPDX 252342Z 2600/2624 VRB03KT P6SM SCT003 BKN250
     FM260400 VRB03KT 2SM BR OVC007
     FM260500 00000KT 1/4SM FG VV002
     FM262030 VRB03KT 1/2SM FG BKN002
     FM262100 00000KT P6SM SCT003 SCT250=



000
FTUS46 KPQR 252342
TAFONP
TAF
KONP 252342Z 2600/2624 08008KT P6SM BKN250=



000
FTUS46 KPQR 252342
TAFEUG
TAF
KEUG 252342Z 2600/2624 VRB02KT 1 1/2SM BR BKN003
     FM260600 20004KT 1/2SM FG VV002
     FM260800 VRB03KT 1/4SM FG VV002=



000
FTUS46 KPQR 252342
TAFHIO
TAF
KHIO 252342Z 2600/2624 VRB03KT P6SM SCT003
     FM260300 00000KT 2SM BR BKN004
     FM260500 00000KT 1/4SM FG VV002
     FM262300 VRB03KT 2SM BR BKN003=



000
FTUS46 KPQR 252342
TAFONP
TAF
KONP 252342Z 2600/2624 08008KT P6SM BKN250=



000
FTUS46 KPQR 252342
TAFTTD
TAF
KTTD 252342Z 2600/2624 30004KT P6SM FEW002 BKN250
     FM260400 16004KT 3SM BR OVC007
     FM260500 00000KT 1/4SM FG VV002
     FM261800 VRB03KT 3SM BR BKN003
     FM261900 VRB04KT P6SM SCT250=



000
FTUS46 KPQR 252342
TAFPDX
TAF
KPDX 252342Z 2600/2624 VRB03KT P6SM SCT003 BKN250
     FM260400 VRB03KT 2SM BR OVC007
     FM260500 00000KT 1/4SM FG VV002
     FM262030 VRB03KT 1/2SM FG BKN002
     FM262100 00000KT P6SM SCT003 SCT250=



000
FTUS46 KPQR 252342
TAFEUG
TAF
KEUG 252342Z 2600/2624 VRB02KT 1 1/2SM BR BKN003
     FM260600 20004KT 1/2SM FG VV002
     FM260800 VRB03KT 1/4SM FG VV002=



000
FTUS46 KPQR 252342
TAFSLE
TAF
KSLE 252342Z 2600/2624 VRB02KT 6SM BR SCT004
     FM260300 00000KT 2SM BR OVC004
     FM260700 00000KT 1/4SM FG VV002
     FM262200 00000KT 2SM BR BKN003=



000
FTUS46 KPQR 252342
TAFAST
TAF
KAST 252342Z 2600/2624 09004KT P6SM SCT250=



000
FTUS46 KPQR 252232 AAB
TAFHIO
TAF AMD
KHIO 252232Z 2523/2618 VRB03KT 1SM BR OVC002
     FM252330 VRB03KT 4SM BR BKN004
     FM260300 00000KT 2SM BR BKN004
     FM260500 00000KT 1/4SM FG VV002=



000
FTUS46 KPQR 252232 AAB
TAFHIO
TAF AMD
KHIO 252232Z 2523/2618 VRB03KT 1SM BR OVC002
     FM252330 VRB03KT 4SM BR BKN004
     FM260300 00000KT 2SM BR BKN004
     FM260500 00000KT 1/4SM FG VV002=



000
FTUS46 KPQR 252058 AAC
TAFPDX
TAF AMD
KPDX 252058Z 2521/2618 VRB03KT P6SM SCT003 BKN250
     FM260400 16004KT 2SM BR OVC007
     FM260600 00000KT 1/4SM FG VV002=



000
FTUS46 KPQR 252058 AAC
TAFPDX
TAF AMD
KPDX 252058Z 2521/2618 VRB03KT P6SM SCT003 BKN250
     FM260400 16004KT 2SM BR OVC007
     FM260600 00000KT 1/4SM FG VV002=



000
FTUS46 KPQR 252009 AAB
TAFPDX
TAF AMD
KPDX 252009Z 2520/2618 VRB03KT 1/4SM FG VV002
     FM252100 VRB04KT 2SM BR OVC003
     FM252200 VRB03KT P6SM SCT002 BKN250
     FM260400 16004KT 2SM BR OVC007
     FM260600 00000KT 1/4SM FG VV002=



000
FTUS46 KPQR 252009 AAB
TAFPDX
TAF AMD
KPDX 252009Z 2520/2618 VRB03KT 1/4SM FG VV002
     FM252100 VRB04KT 2SM BR OVC003
     FM252200 VRB03KT P6SM SCT002 BKN250
     FM260400 16004KT 2SM BR OVC007
     FM260600 00000KT 1/4SM FG VV002=



000
FTUS46 KPQR 251947 AAA
TAFEUG
TAF AMD
KEUG 251947Z 2520/2618 00000KT 1/4SM FG VV002
     FM252200 00000KT 2SM BR OVC001
     FM252300 VRB02KT 6SM BR BKN004
     FM260200 00000KT 2SM BR OVC004
     FM260600 20004KT 1/2SM FG VV002
     FM260800 VRB03KT 1/4SM FG VV002=



000
FTUS46 KPQR 251947 AAA
TAFEUG
TAF AMD
KEUG 251947Z 2520/2618 00000KT 1/4SM FG VV002
     FM252200 00000KT 2SM BR OVC001
     FM252300 VRB02KT 6SM BR BKN004
     FM260200 00000KT 2SM BR OVC004
     FM260600 20004KT 1/2SM FG VV002
     FM260800 VRB03KT 1/4SM FG VV002=



000
FTUS46 KPQR 251946 AAA
TAFSLE
TAF AMD
KSLE 251946Z 2520/2618 00000KT 1/4SM FG VV002
     FM252200 00000KT 2SM BR OVC002
     FM252300 VRB02KT P6SM BKN004
     FM260200 00000KT 2SM BR OVC004
     FM260700 00000KT 1/4SM FG VV002=



000
FTUS46 KPQR 251946 AAA
TAFSLE
TAF AMD
KSLE 251946Z 2520/2618 00000KT 1/4SM FG VV002
     FM252200 00000KT 2SM BR OVC002
     FM252300 VRB02KT P6SM BKN004
     FM260200 00000KT 2SM BR OVC004
     FM260700 00000KT 1/4SM FG VV002=



000
FTUS46 KPQR 251945 AAA
TAFHIO
TAF AMD
KHIO 251945Z 2520/2618 00000KT 1/4SM FG VV002
     FM252200 VRB03KT 5SM HZ BKN005 BKN015
     FM260300 00000KT 2SM BR BKN004
     FM260500 00000KT 1/4SM FG VV002=



000
FTUS46 KPQR 251945 AAA
TAFHIO
TAF AMD
KHIO 251945Z 2520/2618 00000KT 1/4SM FG VV002
     FM252200 VRB03KT 5SM HZ BKN005 BKN015
     FM260300 00000KT 2SM BR BKN004
     FM260500 00000KT 1/4SM FG VV002=



000
FTUS46 KPQR 251908 AAA
TAFPDX
TAF AMD
KPDX 251908Z 2519/2618 VRB03KT 1/4SM FG VV002
     FM252000 VRB04KT 2SM BR OVC003
     FM252100 VRB03KT P6SM SCT002 BKN250
     FM260400 16004KT 2SM BR OVC007
     FM260600 00000KT 1/4SM FG VV002=



000
FTUS46 KPQR 251908 AAA
TAFPDX
TAF AMD
KPDX 251908Z 2519/2618 VRB03KT 1/4SM FG VV002
     FM252000 VRB04KT 2SM BR OVC003
     FM252100 VRB03KT P6SM SCT002 BKN250
     FM260400 16004KT 2SM BR OVC007
     FM260600 00000KT 1/4SM FG VV002=



000
FTUS46 KPQR 251905 AAA
TAFTTD
TAF AMD
KTTD 251905Z 2519/2618 30004KT P6SM FEW002 BKN250
     FM260500 16004KT 2SM BR OVC007
     FM260700 00000KT 1/4SM FG VV002=



000
FTUS46 KPQR 251905 AAA
TAFTTD
TAF AMD
KTTD 251905Z 2519/2618 30004KT P6SM FEW002 BKN250
     FM260500 16004KT 2SM BR OVC007
     FM260700 00000KT 1/4SM FG VV002=



000
FTUS46 KPQR 251842 AAA
TAFAST
TAF AMD
KAST 251842Z 2519/2618 07004KT P6SM SCT002 SCT250
      TEMPO 2519/2521 4SM BR
     FM260100 VRB03KT 4SM BR SCT250
     FM260500 16005KT 2SM BR SCT002 SCT250=



000
FTUS46 KPQR 251842 AAA
TAFAST
TAF AMD
KAST 251842Z 2519/2618 07004KT P6SM SCT002 SCT250
      TEMPO 2519/2521 4SM BR
     FM260100 VRB03KT 4SM BR SCT250
     FM260500 16005KT 2SM BR SCT002 SCT250=



000
FTUS46 KPQR 251725
TAFEUG
TAF
KEUG 251725Z 2518/2618 00000KT 1/4SM FG VV002
     FM252000 00000KT 2SM BR OVC001
     FM252300 VRB02KT 6SM BR BKN004
     FM260200 00000KT 2SM BR OVC004
     FM260600 20004KT 1/2SM FG VV002
     FM260800 VRB03KT 1/4SM FG VV002=



000
FTUS46 KPQR 251725
TAFTTD
TAF
KTTD 251725Z 2518/2618 VRB03KT 1 1/2SM BR OVC002
     FM251900 VRB03KT 5SM BR BKN015 BKN250
     FM252100 31004KT P6SM SCT020 BKN250
     FM260500 16004KT 2SM BR OVC007
     FM260700 00000KT 1/4SM FG VV002=



000
FTUS46 KPQR 251725
TAFHIO
TAF
KHIO 251725Z 2518/2618 00000KT 1/4SM FG VV002
     FM252000 00000KT 2SM BR OVC003
     FM252200 VRB03KT 5SM HZ BKN005 BKN015
     FM260300 00000KT 2SM BR BKN004
     FM260500 00000KT 1/4SM FG VV002=



000
FTUS46 KPQR 251725
TAFPDX
TAF
KPDX 251725Z 2518/2618 VRB03KT 1/4SM FG VV002
     FM251900 VRB04KT 2SM BR OVC003
     FM252100 VRB03KT 5SM BR BKN015 BKN250
     FM252200 31004KT P6SM SCT020 BKN250
     FM260400 16004KT 2SM BR OVC007
     FM260600 00000KT 1/4SM FG VV002=



000
FTUS46 KPQR 251725
TAFSLE
TAF
KSLE 251725Z 2518/2618 00000KT 1/4SM FG VV002
     FM252000 00000KT 2SM BR OVC002
     FM252300 VRB02KT P6SM BKN004
     FM260200 00000KT 2SM BR OVC004
     FM260700 00000KT 1/4SM FG VV002=



000
FTUS46 KPQR 251725
TAFONP
TAF
KONP 251725Z 2518/2618 08008KT P6SM BKN250=



000
FTUS46 KPQR 251725
TAFAST
TAF
KAST 251725Z 2518/2618 08004KT 4SM BR SCT002
      TEMPO 2518/2520 2SM BR BKN002
     FM252000 08004KT 6SM HZ SCT010 SCT250
     FM252200 VRB03KT P6SM SCT250
     FM260100 VRB03KT 4SM BR SCT250
     FM260500 16005KT 2SM BR SCT002 SCT250=



000
FTUS46 KPQR 251725
TAFEUG
TAF
KEUG 251725Z 2518/2618 00000KT 1/4SM FG VV002
     FM252000 00000KT 2SM BR OVC001
     FM252300 VRB02KT 6SM BR BKN004
     FM260200 00000KT 2SM BR OVC004
     FM260600 20004KT 1/2SM FG VV002
     FM260800 VRB03KT 1/4SM FG VV002=



000
FTUS46 KPQR 251725
TAFPDX
TAF
KPDX 251725Z 2518/2618 VRB03KT 1/4SM FG VV002
     FM251900 VRB04KT 2SM BR OVC003
     FM252100 VRB03KT 5SM BR BKN015 BKN250
     FM252200 31004KT P6SM SCT020 BKN250
     FM260400 16004KT 2SM BR OVC007
     FM260600 00000KT 1/4SM FG VV002=



000
FTUS46 KPQR 251725
TAFHIO
TAF
KHIO 251725Z 2518/2618 00000KT 1/4SM FG VV002
     FM252000 00000KT 2SM BR OVC003
     FM252200 VRB03KT 5SM HZ BKN005 BKN015
     FM260300 00000KT 2SM BR BKN004
     FM260500 00000KT 1/4SM FG VV002=



000
FTUS46 KPQR 251725
TAFAST
TAF
KAST 251725Z 2518/2618 08004KT 4SM BR SCT002
      TEMPO 2518/2520 2SM BR BKN002
     FM252000 08004KT 6SM HZ SCT010 SCT250
     FM252200 VRB03KT P6SM SCT250
     FM260100 VRB03KT 4SM BR SCT250
     FM260500 16005KT 2SM BR SCT002 SCT250=



000
FTUS46 KPQR 251725
TAFTTD
TAF
KTTD 251725Z 2518/2618 VRB03KT 1 1/2SM BR OVC002
     FM251900 VRB03KT 5SM BR BKN015 BKN250
     FM252100 31004KT P6SM SCT020 BKN250
     FM260500 16004KT 2SM BR OVC007
     FM260700 00000KT 1/4SM FG VV002=



000
FTUS46 KPQR 251725
TAFONP
TAF
KONP 251725Z 2518/2618 08008KT P6SM BKN250=



000
FTUS46 KPQR 251725
TAFSLE
TAF
KSLE 251725Z 2518/2618 00000KT 1/4SM FG VV002
     FM252000 00000KT 2SM BR OVC002
     FM252300 VRB02KT P6SM BKN004
     FM260200 00000KT 2SM BR OVC004
     FM260700 00000KT 1/4SM FG VV002=



000
FTUS46 KPQR 251449 AAA
TAFPDX
TAF AMD
KPDX 251449Z 2515/2612 VRB03KT 1/4SM FG VV002
     FM251600 VRB03KT 1/2SM FG VV003
     FM251900 VRB04KT 5SM BR BKN007 OVC015
     FM252000 VRB03KT P6SM BKN015 BKN250
     FM252200 31004KT P6SM SCT020 BKN250
     FM260400 16004KT 2SM BR OVC007
     FM260600 00000KT 1/4SM FG VV002=



000
FTUS46 KPQR 251449 AAA
TAFPDX
TAF AMD
KPDX 251449Z 2515/2612 VRB03KT 1/4SM FG VV002
     FM251600 VRB03KT 1/2SM FG VV003
     FM251900 VRB04KT 5SM BR BKN007 OVC015
     FM252000 VRB03KT P6SM BKN015 BKN250
     FM252200 31004KT P6SM SCT020 BKN250
     FM260400 16004KT 2SM BR OVC007
     FM260600 00000KT 1/4SM FG VV002=



000
FTUS46 KPQR 251157 AAA
TAFEUG
TAF AMD
KEUG 251157Z 2512/2612 00000KT 1/4SM FG VV002
     FM251900 00000KT 2SM BR OVC001
     FM252200 VRB02KT 6SM BR BKN004
     FM260200 00000KT 2SM BR OVC004
     FM260600 20004KT 1/2SM FG VV002
     FM260800 VRB03KT 1/4SM FG VV002=



000
FTUS46 KPQR 251157 AAA
TAFEUG
TAF AMD
KEUG 251157Z 2512/2612 00000KT 1/4SM FG VV002
     FM251900 00000KT 2SM BR OVC001
     FM252200 VRB02KT 6SM BR BKN004
     FM260200 00000KT 2SM BR OVC004
     FM260600 20004KT 1/2SM FG VV002
     FM260800 VRB03KT 1/4SM FG VV002=



000
FTUS46 KPQR 251156 CCA
TAFHIO
TAF COR
KHIO 251156Z 2512/2612 00000KT 1/4SM FG VV002
     FM251800 00000KT 2SM BR OVC003
     FM252000 00000KT 4SM BR BKN003
     FM252200 VRB03KT P6SM SCT004 BKN250
     FM260300 00000KT 3SM BR SCT004 BKN250
     FM260500 00000KT 1/4SM FG VV002=



000
FTUS46 KPQR 251156 CCA
TAFHIO
TAF COR
KHIO 251156Z 2512/2612 00000KT 1/4SM FG VV002
     FM251800 00000KT 2SM BR OVC003
     FM252000 00000KT 4SM BR BKN003
     FM252200 VRB03KT P6SM SCT004 BKN250
     FM260300 00000KT 3SM BR SCT004 BKN250
     FM260500 00000KT 1/4SM FG VV002=



000
FTUS46 KPQR 251136
TAFAST
TAF
KAST 251136Z 2512/2612 00000KT 1/4SM FG VV003
     FM251800 12003KT 1SM BR SCT002 BKN007
     FM252200 08003KT P6SM SCT010 BKN250
     FM260100 VRB03KT 2SM BR OVC004
     FM260500 16004KT 1/2SM FG VV003=



000
FTUS46 KPQR 251136
TAFTTD
TAF
KTTD 251136Z 2512/2612 00000KT 1/4SM FG VV002
     FM251600 VRB03KT 1/2SM FG VV003
     FM251900 VRB04KT 5SM BR BKN007 OVC015
     FM252000 VRB03KT P6SM BKN015 BKN250
     FM260500 16004KT 2SM BR OVC007
     FM260700 00000KT 1/4SM FG VV002=



000
FTUS46 KPQR 251136
TAFSLE
TAF
KSLE 251136Z 2512/2612 00000KT 1/4SM FG VV002
     FM251900 00000KT 2SM BR OVC002
     FM252300 VRB02KT P6SM BKN004
     FM260200 00000KT 2SM BR OVC004
     FM260700 00000KT 1/4SM FG VV002=



000
FTUS46 KPQR 251136
TAFEUG
TAF
KEUG 251136Z 2512/2612 00000KT 1/2SM FG VV002
     FM251900 00000KT 2SM BR OVC001
     FM252200 VRB02KT 6SM BR BKN004
     FM260200 00000KT 2SM BR OVC004
     FM260600 20004KT 1/2SM FG VV002
     FM260800 VRB03KT 1/4SM FG VV002=



000
FTUS46 KPQR 251136
TAFPDX
TAF
KPDX 251136Z 2512/2612 00000KT 1/4SM FG VV002
     FM251600 VRB03KT 1/2SM FG VV003
     FM251900 VRB04KT 5SM BR BKN007 OVC015
     FM252000 VRB03KT P6SM BKN015 BKN250
     FM252200 31004KT P6SM SCT020 BKN250
     FM260400 16004KT 2SM BR OVC007
     FM260600 00000KT 1/4SM FG VV002=



000
FTUS46 KPQR 251136
TAFHIO
TAF
KHIO 251136Z 2512/2612 00000KT 1/2SM FG VV002
     FM251800 00000KT 2SM BR OVC003
     FM252000 00000KT 4SM BR BKN003
     FM252200 VRB03KT P6SM SCT004 BKN250
     FM260300 00000KT 3SM BR SCT004 BKN250
     FM260500 00000KT 1/4SM FG VV002=



000
FTUS46 KPQR 251136
TAFONP
TAF
KONP 251136Z 2512/2612 VRB03KT P6SM SCT001 BKN250
     FM251600 08008KT P6SM BKN250=



000
FTUS46 KPQR 251136
TAFSLE
TAF
KSLE 251136Z 2512/2612 00000KT 1/4SM FG VV002
     FM251900 00000KT 2SM BR OVC002
     FM252300 VRB02KT P6SM BKN004
     FM260200 00000KT 2SM BR OVC004
     FM260700 00000KT 1/4SM FG VV002=



000
FTUS46 KPQR 251136
TAFONP
TAF
KONP 251136Z 2512/2612 VRB03KT P6SM SCT001 BKN250
     FM251600 08008KT P6SM BKN250=



000
FTUS46 KPQR 251136
TAFPDX
TAF
KPDX 251136Z 2512/2612 00000KT 1/4SM FG VV002
     FM251600 VRB03KT 1/2SM FG VV003
     FM251900 VRB04KT 5SM BR BKN007 OVC015
     FM252000 VRB03KT P6SM BKN015 BKN250
     FM252200 31004KT P6SM SCT020 BKN250
     FM260400 16004KT 2SM BR OVC007
     FM260600 00000KT 1/4SM FG VV002=



000
FTUS46 KPQR 251136
TAFHIO
TAF
KHIO 251136Z 2512/2612 00000KT 1/2SM FG VV002
     FM251800 00000KT 2SM BR OVC003
     FM252000 00000KT 4SM BR BKN003
     FM252200 VRB03KT P6SM SCT004 BKN250
     FM260300 00000KT 3SM BR SCT004 BKN250
     FM260500 00000KT 1/4SM FG VV002=



000
FTUS46 KPQR 251136
TAFTTD
TAF
KTTD 251136Z 2512/2612 00000KT 1/4SM FG VV002
     FM251600 VRB03KT 1/2SM FG VV003
     FM251900 VRB04KT 5SM BR BKN007 OVC015
     FM252000 VRB03KT P6SM BKN015 BKN250
     FM260500 16004KT 2SM BR OVC007
     FM260700 00000KT 1/4SM FG VV002=



000
FTUS46 KPQR 251136
TAFAST
TAF
KAST 251136Z 2512/2612 00000KT 1/4SM FG VV003
     FM251800 12003KT 1SM BR SCT002 BKN007
     FM252200 08003KT P6SM SCT010 BKN250
     FM260100 VRB03KT 2SM BR OVC004
     FM260500 16004KT 1/2SM FG VV003=



000
FTUS46 KPQR 251136
TAFEUG
TAF
KEUG 251136Z 2512/2612 00000KT 1/2SM FG VV002
     FM251900 00000KT 2SM BR OVC001
     FM252200 VRB02KT 6SM BR BKN004
     FM260200 00000KT 2SM BR OVC004
     FM260600 20004KT 1/2SM FG VV002
     FM260800 VRB03KT 1/4SM FG VV002=



000
FTUS46 KPQR 250912 AAB
TAFONP
TAF AMD
KONP 250912Z 2509/2606 VRB03KT P6SM SCT001
     FM251200 09005KT 6SM BR SCT005 SCT200
     FM251600 08008KT P6SM FEW008 BKN250=



000
FTUS46 KPQR 250912 AAB
TAFONP
TAF AMD
KONP 250912Z 2509/2606 VRB03KT P6SM SCT001
     FM251200 09005KT 6SM BR SCT005 SCT200
     FM251600 08008KT P6SM FEW008 BKN250=



000
FTUS46 KPQR 250849 AAB
TAFPDX
TAF AMD
KPDX 250849Z 2509/2606 00000KT 1/4SM FG VV002
     FM251800 12004KT 4SM BR BKN003
     FM252000 11006KT P6SM FEW005 BKN250=



000
FTUS46 KPQR 250849 AAB
TAFPDX
TAF AMD
KPDX 250849Z 2509/2606 00000KT 1/4SM FG VV002
     FM251800 12004KT 4SM BR BKN003
     FM252000 11006KT P6SM FEW005 BKN250=



000
FTUS46 KPQR 250848 AAC
TAFSLE
TAF AMD
KSLE 250848Z 2509/2606 00000KT 1/2SM FG OVC002
      TEMPO 2509/2513 1/4SM FG VV002
     FM251900 00000KT 2SM BR OVC002
     FM252300 VRB02KT P6SM BKN004
     FM260200 00000KT 2SM BR OVC004=



000
FTUS46 KPQR 250848 AAC
TAFSLE
TAF AMD
KSLE 250848Z 2509/2606 00000KT 1/2SM FG OVC002
      TEMPO 2509/2513 1/4SM FG VV002
     FM251900 00000KT 2SM BR OVC002
     FM252300 VRB02KT P6SM BKN004
     FM260200 00000KT 2SM BR OVC004=



000
FTUS46 KPQR 250714 AAA
TAFAST
TAF AMD
KAST 250714Z 2507/2606 00000KT 1/4SM FG VV003
     FM251500 VRB02KT 1SM BR BKN003 OVC006
     FM251800 12003KT P6SM SCT002 BKN007
     FM252200 08003KT P6SM SCT010 BKN250=



000
FTUS46 KPQR 250714 AAA
TAFAST
TAF AMD
KAST 250714Z 2507/2606 00000KT 1/4SM FG VV003
     FM251500 VRB02KT 1SM BR BKN003 OVC006
     FM251800 12003KT P6SM SCT002 BKN007
     FM252200 08003KT P6SM SCT010 BKN250=



000
FTUS46 KPQR 250714 AAB
TAFSLE
TAF AMD
KSLE 250714Z 2507/2606 00000KT 1/2SM FG SCT001
      TEMPO 2510/2514 1/4SM FG VV002
     FM251900 00000KT 2SM BR OVC002
     FM252300 VRB02KT P6SM BKN004
     FM260200 00000KT 2SM BR OVC004=



000
FTUS46 KPQR 250714 AAB
TAFSLE
TAF AMD
KSLE 250714Z 2507/2606 00000KT 1/2SM FG SCT001
      TEMPO 2510/2514 1/4SM FG VV002
     FM251900 00000KT 2SM BR OVC002
     FM252300 VRB02KT P6SM BKN004
     FM260200 00000KT 2SM BR OVC004=



000
FTUS46 KPQR 250712 AAB
TAFEUG
TAF AMD
KEUG 250712Z 2507/2606 00000KT 1/4SM FG VV001
     FM251900 00000KT 2SM BR OVC001
     FM252200 VRB02KT 6SM BR BKN004
     FM260200 00000KT 2SM BR OVC004=



000
FTUS46 KPQR 250712 AAB
TAFEUG
TAF AMD
KEUG 250712Z 2507/2606 00000KT 1/4SM FG VV001
     FM251900 00000KT 2SM BR OVC001
     FM252200 VRB02KT 6SM BR BKN004
     FM260200 00000KT 2SM BR OVC004=



000
FTUS46 KPQR 250705 AAA
TAFONP
TAF AMD
KONP 250705Z 2507/2606 VRB03KT P6SM SCT001
      TEMPO 2507/2511 1SM BR BKN001
     FM251200 09005KT 6SM BR SCT005 SCT200
     FM251600 08008KT P6SM FEW008 BKN250=



000
FTUS46 KPQR 250705 AAA
TAFONP
TAF AMD
KONP 250705Z 2507/2606 VRB03KT P6SM SCT001
      TEMPO 2507/2511 1SM BR BKN001
     FM251200 09005KT 6SM BR SCT005 SCT200
     FM251600 08008KT P6SM FEW008 BKN250=



000
FTUS46 KPQR 250701 AAA
TAFSLE
TAF AMD
KSLE 250701Z 2507/2606 00000KT 4SM BR VCFG BKN250
     FM250800 00000KT 1/2SM FG VV002
      TEMPO 2510/2514 1/4SM FG
     FM251900 00000KT 2SM BR OVC002
     FM252300 VRB02KT P6SM BKN004
     FM260200 00000KT 2SM BR OVC004=



000
FTUS46 KPQR 250701 AAA
TAFSLE
TAF AMD
KSLE 250701Z 2507/2606 00000KT 4SM BR VCFG BKN250
     FM250800 00000KT 1/2SM FG VV002
      TEMPO 2510/2514 1/4SM FG
     FM251900 00000KT 2SM BR OVC002
     FM252300 VRB02KT P6SM BKN004
     FM260200 00000KT 2SM BR OVC004=



000
FTUS46 KPQR 250700 AAA
TAFEUG
TAF AMD
KEUG 250700Z 2507/2606 16003KT 1/2SM FG SCT001
     FM250800 00000KT 1/4SM FG VV001
     FM251900 00000KT 2SM BR OVC001
     FM252200 VRB02KT 6SM BR BKN004
     FM260200 00000KT 2SM BR OVC004=



000
FTUS46 KPQR 250700 AAA
TAFEUG
TAF AMD
KEUG 250700Z 2507/2606 16003KT 1/2SM FG SCT001
     FM250800 00000KT 1/4SM FG VV001
     FM251900 00000KT 2SM BR OVC001
     FM252200 VRB02KT 6SM BR BKN004
     FM260200 00000KT 2SM BR OVC004=



000
FTUS46 KPQR 250648 AAA
TAFPDX
TAF AMD
KPDX 250648Z 2507/2606 00000KT 1/4SM FG VV002
     FM251800 12004KT 4SM BR BKN003
     FM252000 11006KT P6SM FEW005 BKN250=



000
FTUS46 KPQR 250648 AAA
TAFPDX
TAF AMD
KPDX 250648Z 2507/2606 00000KT 1/4SM FG VV002
     FM251800 12004KT 4SM BR BKN003
     FM252000 11006KT P6SM FEW005 BKN250=



000
FTUS46 KPQR 250540
TAFHIO
TAF
KHIO 250540Z 2506/2606 00000KT 1/4SM FG VV001
     FM251800 00000KT 2SM BR OVC003
     FM252000 00000KT 4SM BR BKN003
     FM252200 VRB03KT P6SM SCT004 BKN250=



000
FTUS46 KPQR 250540
TAFEUG
TAF
KEUG 250540Z 2506/2606 00000KT P6SM MIFG SCT001 BKN250
     FM250800 00000KT 1/4SM FG VV001
     FM251900 00000KT 2SM BR OVC001
     FM252200 VRB02KT 6SM BR BKN004
     FM260200 00000KT 2SM BR OVC004=



000
FTUS46 KPQR 250540
TAFTTD
TAF
KTTD 250540Z 2506/2606 00000KT 1/4SM FG VV002
     FM251300 VRB02KT 2SM BR OVC002
     FM251600 10008KT P6SM SCT003 SCT250
     FM252000 09011KT P6SM SCT250=



000
FTUS46 KPQR 250540
TAFSLE
TAF
KSLE 250540Z 2506/2606 00000KT P6SM MIFG BKN250
     FM250800 00000KT 1/2SM FG VV002
      TEMPO 2510/2514 1/4SM FG
     FM251900 00000KT 2SM BR OVC002
     FM252300 VRB02KT P6SM BKN004
     FM260200 00000KT 2SM BR OVC004=



000
FTUS46 KPQR 250540
TAFPDX
TAF
KPDX 250540Z 2506/2606 VRB03KT 3/4SM BR BKN002
     FM250900 00000KT 1/4SM FG OVC002
     FM251800 12004KT 4SM BR BKN003
     FM252000 11006KT P6SM FEW005 BKN250=



000
FTUS46 KPQR 250540
TAFTTD
TAF
KTTD 250540Z 2506/2606 00000KT 1/4SM FG VV002
     FM251300 VRB02KT 2SM BR OVC002
     FM251600 10008KT P6SM SCT003 SCT250
     FM252000 09011KT P6SM SCT250=



000
FTUS46 KPQR 250540
TAFEUG
TAF
KEUG 250540Z 2506/2606 00000KT P6SM MIFG SCT001 BKN250
     FM250800 00000KT 1/4SM FG VV001
     FM251900 00000KT 2SM BR OVC001
     FM252200 VRB02KT 6SM BR BKN004
     FM260200 00000KT 2SM BR OVC004=



000
FTUS46 KPQR 250540
TAFSLE
TAF
KSLE 250540Z 2506/2606 00000KT P6SM MIFG BKN250
     FM250800 00000KT 1/2SM FG VV002
      TEMPO 2510/2514 1/4SM FG
     FM251900 00000KT 2SM BR OVC002
     FM252300 VRB02KT P6SM BKN004
     FM260200 00000KT 2SM BR OVC004=



000
FTUS46 KPQR 250540
TAFONP
TAF
KONP 250540Z 2506/2606 VRB03KT 4SM BR SCT007
      TEMPO 2506/2509 1SM BR
     FM250900 VRB02KT 1SM BR BKN005
     FM251200 09005KT 6SM BR SCT005 SCT200
     FM251600 08008KT P6SM FEW008 BKN250=



000
FTUS46 KPQR 250540
TAFPDX
TAF
KPDX 250540Z 2506/2606 VRB03KT 3/4SM BR BKN002
     FM250900 00000KT 1/4SM FG OVC002
     FM251800 12004KT 4SM BR BKN003
     FM252000 11006KT P6SM FEW005 BKN250=



000
FTUS46 KPQR 250540
TAFHIO
TAF
KHIO 250540Z 2506/2606 00000KT 1/4SM FG VV001
     FM251800 00000KT 2SM BR OVC003
     FM252000 00000KT 4SM BR BKN003
     FM252200 VRB03KT P6SM SCT004 BKN250=



000
FTUS46 KPQR 250540
TAFAST
TAF
KAST 250540Z 2506/2606 00000KT 1/2SM FG OVC003
     FM251500 VRB02KT 1SM BR BKN003 OVC006
     FM251800 12003KT P6SM SCT002 BKN007
     FM252200 08003KT P6SM SCT010 BKN250=



000
FTUS46 KPQR 250540
TAFAST
TAF
KAST 250540Z 2506/2606 00000KT 1/2SM FG OVC003
     FM251500 VRB02KT 1SM BR BKN003 OVC006
     FM251800 12003KT P6SM SCT002 BKN007
     FM252200 08003KT P6SM SCT010 BKN250=



000
FTUS46 KPQR 250540
TAFONP
TAF
KONP 250540Z 2506/2606 VRB03KT 4SM BR SCT007
      TEMPO 2506/2509 1SM BR
     FM250900 VRB02KT 1SM BR BKN005
     FM251200 09005KT 6SM BR SCT005 SCT200
     FM251600 08008KT P6SM FEW008 BKN250=



000
FTUS46 KPQR 250439 AAB
TAFTTD
TAF AMD
KTTD 250439Z 2505/2524 00000KT 3SM BR BKN002
      TEMPO 2505/2508 1/4SM FG BKN002
     FM250800 00000KT 1/4SM FG VV001
     FM251200 VRB02KT 1SM BR OVC002
     FM251700 11005KT 6SM BR SCT003 SCT250
     FM252000 09011KT P6SM SCT250=



000
FTUS46 KPQR 250439 AAB
TAFTTD
TAF AMD
KTTD 250439Z 2505/2524 00000KT 3SM BR BKN002
      TEMPO 2505/2508 1/4SM FG BKN002
     FM250800 00000KT 1/4SM FG VV001
     FM251200 VRB02KT 1SM BR OVC002
     FM251700 11005KT 6SM BR SCT003 SCT250
     FM252000 09011KT P6SM SCT250=



000
FTUS46 KPQR 250307 AAA
TAFPDX
TAF AMD
KPDX 250307Z 2503/2524 VRB03KT 6SM BR SCT002 BKN250
     FM250700 00000KT 2SM BR BKN002
     FM250900 00000KT 3/4SM BR OVC002
     FM251800 12004KT 3SM BR BKN003
     FM252000 12004KT P6SM FEW005 BKN250=



000
FTUS46 KPQR 250307 AAA
TAFPDX
TAF AMD
KPDX 250307Z 2503/2524 VRB03KT 6SM BR SCT002 BKN250
     FM250700 00000KT 2SM BR BKN002
     FM250900 00000KT 3/4SM BR OVC002
     FM251800 12004KT 3SM BR BKN003
     FM252000 12004KT P6SM FEW005 BKN250=



000
FTUS46 KPQR 250304 AAA
TAFTTD
TAF AMD
KTTD 250304Z 2503/2524 00000KT 3SM BR FEW001 BKN250
     FM250600 00000KT 3/4SM BR BKN001
     FM251200 VRB02KT 1SM BR OVC002
     FM251700 11005KT 6SM BR SCT003 SCT250
     FM252000 09011KT P6SM SCT250=



000
FTUS46 KPQR 250304 AAA
TAFTTD
TAF AMD
KTTD 250304Z 2503/2524 00000KT 3SM BR FEW001 BKN250
     FM250600 00000KT 3/4SM BR BKN001
     FM251200 VRB02KT 1SM BR OVC002
     FM251700 11005KT 6SM BR SCT003 SCT250
     FM252000 09011KT P6SM SCT250=



000
FTUS46 KPQR 250302 AAA
TAFHIO
TAF AMD
KHIO 250302Z 2503/2524 00000KT 4SM BR SCT001 BKN250
     FM250600 00000KT 1SM BR BKN001
     FM250800 00000KT 1/4SM FG VV001
     FM251900 VRB03KT 1 1/2SM BR BKN002
     FM252100 VRB03KT P6SM FEW005 BKN250=



000
FTUS46 KPQR 250302 AAA
TAFHIO
TAF AMD
KHIO 250302Z 2503/2524 00000KT 4SM BR SCT001 BKN250
     FM250600 00000KT 1SM BR BKN001
     FM250800 00000KT 1/4SM FG VV001
     FM251900 VRB03KT 1 1/2SM BR BKN002
     FM252100 VRB03KT P6SM FEW005 BKN250=



000
FTUS46 KPQR 250159 AAA
TAFAST
TAF AMD
KAST 250159Z 2502/2524 29004KT 3SM BR BKN002 OVC012
      TEMPO 2502/2506 1/2SM FG OVC002
     FM250600 VRB02KT 3/4SM BR BKN002 OVC006
     FM251200 14003KT 5SM BR SCT002 BKN007
     FM251800 08003KT P6SM SCT010 BKN250=



000
FTUS46 KPQR 250159 AAA
TAFAST
TAF AMD
KAST 250159Z 2502/2524 29004KT 3SM BR BKN002 OVC012
      TEMPO 2502/2506 1/2SM FG OVC002
     FM250600 VRB02KT 3/4SM BR BKN002 OVC006
     FM251200 14003KT 5SM BR SCT002 BKN007
     FM251800 08003KT P6SM SCT010 BKN250=



000
FTUS46 KPQR 242327
TAFONP
TAF
KONP 242327Z 2500/2524 VRB03KT 4SM BR SCT007 SCT200
      TEMPO 2500/2503 1 1/2SM BR BKN007
     FM250300 VRB02KT 1 1/2SM BR BKN007
     FM250900 09005KT 6SM BR SCT200
     FM251700 08005KT P6SM SCT035=



000
FTUS46 KPQR 242327
TAFHIO
TAF
KHIO 242327Z 2500/2524 00000KT P6SM SCT050
     FM250700 00000KT 3SM BR BKN007
     FM251000 00000KT 1 1/2SM BR BKN003
     FM251400 00000KT 1/2SM FG VV002
     FM251900 VRB03KT 1 1/2SM BR BKN007=



000
FTUS46 KPQR 242327
TAFAST
TAF
KAST 242327Z 2500/2524 VRB03KT 6SM BR BKN009 OVC025
     FM250500 19004KT 4SM BR BKN006 OVC015
     FM250700 18004KT 2SM BR SCT002 BKN007
     FM251100 14003KT 6SM BR SCT005 BKN025
     FM251800 06003KT P6SM SCT035=



000
FTUS46 KPQR 242327
TAFHIO
TAF
KHIO 242327Z 2500/2524 00000KT P6SM SCT050
     FM250700 00000KT 3SM BR BKN007
     FM251000 00000KT 1 1/2SM BR BKN003
     FM251400 00000KT 1/2SM FG VV002
     FM251900 VRB03KT 1 1/2SM BR BKN007=



000
FTUS46 KPQR 242327
TAFONP
TAF
KONP 242327Z 2500/2524 VRB03KT 4SM BR SCT007 SCT200
      TEMPO 2500/2503 1 1/2SM BR BKN007
     FM250300 VRB02KT 1 1/2SM BR BKN007
     FM250900 09005KT 6SM BR SCT200
     FM251700 08005KT P6SM SCT035=



000
FTUS46 KPQR 242327
TAFPDX
TAF
KPDX 242327Z 2500/2524 VRB03KT P6SM SCT070 SCT200
     FM250900 00000KT 3SM BR SCT200
     FM251200 00000KT 1 1/2SM BR BKN007
     FM251800 12004KT 3SM BR SCT008 SCT200
     FM252100 12004KT P6SM BKN250=



000
FTUS46 KPQR 242327
TAFPDX
TAF
KPDX 242327Z 2500/2524 VRB03KT P6SM SCT070 SCT200
     FM250900 00000KT 3SM BR SCT200
     FM251200 00000KT 1 1/2SM BR BKN007
     FM251800 12004KT 3SM BR SCT008 SCT200
     FM252100 12004KT P6SM BKN250=



000
FTUS46 KPQR 242327
TAFAST
TAF
KAST 242327Z 2500/2524 VRB03KT 6SM BR BKN009 OVC025
     FM250500 19004KT 4SM BR BKN006 OVC015
     FM250700 18004KT 2SM BR SCT002 BKN007
     FM251100 14003KT 6SM BR SCT005 BKN025
     FM251800 06003KT P6SM SCT035=



000
FTUS46 KPQR 242327
TAFSLE
TAF
KSLE 242327Z 2500/2524 16004KT P6SM SCT050 BKN200
     FM250800 00000KT 3SM BR SCT200
     FM251000 00000KT 1 1/2SM BR SCT003 SCT200
     FM251200 00000KT 1/2SM FG VV002
     FM251900 00000KT 3SM BR BKN005=



000
FTUS46 KPQR 242327
TAFEUG
TAF
KEUG 242327Z 2500/2524 VRB03KT P6SM BKN200
     FM250700 00000KT 3SM BR SCT200
     FM250900 00000KT 1 1/2SM BR SCT003 SCT200
     FM251000 00000KT 1/2SM FG VV002
     FM252100 00000KT 3SM BR BKN005=



000
FTUS46 KPQR 242327
TAFSLE
TAF
KSLE 242327Z 2500/2524 16004KT P6SM SCT050 BKN200
     FM250800 00000KT 3SM BR SCT200
     FM251000 00000KT 1 1/2SM BR SCT003 SCT200
     FM251200 00000KT 1/2SM FG VV002
     FM251900 00000KT 3SM BR BKN005=



000
FTUS46 KPQR 242327
TAFTTD
TAF
KTTD 242327Z 2500/2524 VRB03KT P6SM SCT070 SCT200
     FM250900 VRB03KT 3SM BR SCT008 SCT250
     FM251200 VRB03KT 1 1/2SM BR BKN004
     FM251700 11005KT 6SM BR SCT010 SCT250
     FM251900 09008KT P6SM SCT250=



000
FTUS46 KPQR 242327
TAFEUG
TAF
KEUG 242327Z 2500/2524 VRB03KT P6SM BKN200
     FM250700 00000KT 3SM BR SCT200
     FM250900 00000KT 1 1/2SM BR SCT003 SCT200
     FM251000 00000KT 1/2SM FG VV002
     FM252100 00000KT 3SM BR BKN005=



000
FTUS46 KPQR 242327
TAFTTD
TAF
KTTD 242327Z 2500/2524 VRB03KT P6SM SCT070 SCT200
     FM250900 VRB03KT 3SM BR SCT008 SCT250
     FM251200 VRB03KT 1 1/2SM BR BKN004
     FM251700 11005KT 6SM BR SCT010 SCT250
     FM251900 09008KT P6SM SCT250=



000
FTUS46 KPQR 242232 AAC
TAFAST
TAF AMD
KAST 242232Z 2423/2518 VRB03KT 6SM BR SCT005 OVC025
     FM250500 19004KT 4SM BR OVC015
     FM250700 18004KT 2SM BR SCT002 BKN007
     FM251100 14003KT 6SM BR SCT005 BKN025=



000
FTUS46 KPQR 242232 AAC
TAFAST
TAF AMD
KAST 242232Z 2423/2518 VRB03KT 6SM BR SCT005 OVC025
     FM250500 19004KT 4SM BR OVC015
     FM250700 18004KT 2SM BR SCT002 BKN007
     FM251100 14003KT 6SM BR SCT005 BKN025=



000
FTUS46 KPQR 242121 AAA
TAFONP
TAF AMD
KONP 242121Z 2421/2518 VRB03KT 4SM BR VCFG SCT007 SCT200
      TEMPO 2421/2424 2SM BR BKN007
     FM250500 12004KT 4SM BR SCT200
     FM251000 07005KT 6SM BR SCT200=



000
FTUS46 KPQR 242105 AAB
TAFPDX
TAF AMD
KPDX 242105Z 2421/2518 VRB03KT P6SM SCT070 SCT200
     FM251000 00000KT 4SM BR SCT250
     FM251400 00000KT 2SM BR SCT003 SCT250=



000
FTUS46 KPQR 242105 AAB
TAFPDX
TAF AMD
KPDX 242105Z 2421/2518 VRB03KT P6SM SCT070 SCT200
     FM251000 00000KT 4SM BR SCT250
     FM251400 00000KT 2SM BR SCT003 SCT250=



000
FTUS46 KPQR 242040 AAB
TAFAST
TAF AMD
KAST 242040Z 2421/2518 VRB03KT 4SM BR SCT003 OVC020
      TEMPO 2421/2424 BKN003
     FM250000 21006KT P6SM SCT015 BKN035
     FM250700 15004KT 4SM BR OVC015
     FM250800 VRB03KT 2SM BR SCT002 BKN007=



000
FTUS46 KPQR 242040 AAB
TAFAST
TAF AMD
KAST 242040Z 2421/2518 VRB03KT 4SM BR SCT003 OVC020
      TEMPO 2421/2424 BKN003
     FM250000 21006KT P6SM SCT015 BKN035
     FM250700 15004KT 4SM BR OVC015
     FM250800 VRB03KT 2SM BR SCT002 BKN007=



000
FTUS46 KPQR 242010 AAA
TAFTTD
TAF AMD
KTTD 242010Z 2420/2518 00000KT P6SM SCT035 BKN070
     FM242200 09005KT P6SM SCT070 SCT150
     FM250800 VRB03KT P6SM SCT010 SCT250=



000
FTUS46 KPQR 242010 AAA
TAFTTD
TAF AMD
KTTD 242010Z 2420/2518 00000KT P6SM SCT035 BKN070
     FM242200 09005KT P6SM SCT070 SCT150
     FM250800 VRB03KT P6SM SCT010 SCT250=



000
FTUS46 KPQR 242008 AAA
TAFHIO
TAF AMD
KHIO 242008Z 2420/2518 00000KT P6SM SCT009 SCT050
     FM250200 00000KT 3SM BR FEW005 BKN200
     FM250700 00000KT 1/2SM FG VV003=



000
FTUS46 KPQR 242007 AAA
TAFAST
TAF AMD
KAST 242007Z 2420/2518 VRB03KT 4SM BR SCT003 OVC020
     FM242100 21006KT P6SM SCT015 BKN035
     FM250700 15004KT 4SM BR OVC015
     FM250800 VRB03KT 2SM BR SCT002 BKN007=



000
FTUS46 KPQR 242007 AAA
TAFAST
TAF AMD
KAST 242007Z 2420/2518 VRB03KT 4SM BR SCT003 OVC020
     FM242100 21006KT P6SM SCT015 BKN035
     FM250700 15004KT 4SM BR OVC015
     FM250800 VRB03KT 2SM BR SCT002 BKN007=



000
FTUS46 KPQR 241902 AAA
TAFPDX
TAF AMD
KPDX 241902Z 2419/2518 VRB03KT P6SM SCT050 BKN150
     FM250700 VRB03KT P6SM SCT010 SCT250=



000
FTUS46 KPQR 241902 AAA
TAFPDX
TAF AMD
KPDX 241902Z 2419/2518 VRB03KT P6SM SCT050 BKN150
     FM250700 VRB03KT P6SM SCT010 SCT250=



000
FTUS46 KPQR 241721
TAFAST
TAF
KAST 241721Z 2418/2518 VRB04KT 2SM -RA BR BKN003 OVC010
     FM242200 21006KT P6SM SCT015 BKN035
     FM250700 15004KT 4SM BR OVC015
     FM250800 VRB03KT 2SM BR SCT002 BKN007=



000
FTUS46 KPQR 241721
TAFPDX
TAF
KPDX 241721Z 2418/2518 VRB03KT 4SM BR FEW009 SCT015 OVC040
      TEMPO 2418/2420 SCT009 BKN015
     FM242000 14004KT P6SM SCT050 BKN150
     FM250700 VRB03KT P6SM SCT010 SCT250=



000
FTUS46 KPQR 241721
TAFONP
TAF
KONP 241721Z 2418/2518 VRB03KT P6SM BKN200
     FM250500 12004KT 4SM BR SCT250=



000
FTUS46 KPQR 241721
TAFTTD
TAF
KTTD 241721Z 2418/2518 00000KT P6SM BKN030 OVC045
     FM242200 09005KT P6SM SCT050 BKN150
     FM250800 VRB03KT P6SM SCT010 SCT250=



000
FTUS46 KPQR 241721
TAFHIO
TAF
KHIO 241721Z 2418/2518 00000KT 2SM BR BKN010 OVC030
     FM242000 00000KT P6SM BKN025 OVC050
     FM250200 00000KT 3SM BR FEW005 BKN200
     FM250700 00000KT 1/2SM FG VV003=



000
FTUS46 KPQR 241721
TAFSLE
TAF
KSLE 241721Z 2418/2518 VRB03KT P6SM BKN050
     FM242200 16004KT P6SM SCT050 BKN200
     FM251000 00000KT 4SM BR BKN250=



000
FTUS46 KPQR 241721
TAFEUG
TAF
KEUG 241721Z 2418/2518 22005KT P6SM FEW150 BKN200
     FM250400 VRB03KT 4SM BR BKN250
     FM250700 VRB03KT 1 1/2SM BR BKN250
     FM251000 00000KT 1/2SM FG SCT250=



000
FTUS46 KPQR 241721
TAFONP
TAF
KONP 241721Z 2418/2518 VRB03KT P6SM BKN200
     FM250500 12004KT 4SM BR SCT250=



000
FTUS46 KPQR 241721
TAFTTD
TAF
KTTD 241721Z 2418/2518 00000KT P6SM BKN030 OVC045
     FM242200 09005KT P6SM SCT050 BKN150
     FM250800 VRB03KT P6SM SCT010 SCT250=



000
FTUS46 KPQR 241721
TAFSLE
TAF
KSLE 241721Z 2418/2518 VRB03KT P6SM BKN050
     FM242200 16004KT P6SM SCT050 BKN200
     FM251000 00000KT 4SM BR BKN250=



000
FTUS46 KPQR 241721
TAFAST
TAF
KAST 241721Z 2418/2518 VRB04KT 2SM -RA BR BKN003 OVC010
     FM242200 21006KT P6SM SCT015 BKN035
     FM250700 15004KT 4SM BR OVC015
     FM250800 VRB03KT 2SM BR SCT002 BKN007=



000
FTUS46 KPQR 241721
TAFPDX
TAF
KPDX 241721Z 2418/2518 VRB03KT 4SM BR FEW009 SCT015 OVC040
      TEMPO 2418/2420 SCT009 BKN015
     FM242000 14004KT P6SM SCT050 BKN150
     FM250700 VRB03KT P6SM SCT010 SCT250=



000
FTUS46 KPQR 241721
TAFHIO
TAF
KHIO 241721Z 2418/2518 00000KT 2SM BR BKN010 OVC030
     FM242000 00000KT P6SM BKN025 OVC050
     FM250200 00000KT 3SM BR FEW005 BKN200
     FM250700 00000KT 1/2SM FG VV003=



000
FTUS46 KPQR 241721
TAFEUG
TAF
KEUG 241721Z 2418/2518 22005KT P6SM FEW150 BKN200
     FM250400 VRB03KT 4SM BR BKN250
     FM250700 VRB03KT 1 1/2SM BR BKN250
     FM251000 00000KT 1/2SM FG SCT250=



000
FTUS46 KPQR 241628 AAD
TAFEUG
TAF AMD
KEUG 241628Z 2416/2512 VRB04KT P6SM VCFG SCT002 SCT250
      TEMPO 2416/2418 3SM BR BKN002
     FM241900 17004KT P6SM SCT050 BKN200
     FM250500 VRB03KT 1 1/2SM BR BKN250=



000
FTUS46 KPQR 241628 AAD
TAFEUG
TAF AMD
KEUG 241628Z 2416/2512 VRB04KT P6SM VCFG SCT002 SCT250
      TEMPO 2416/2418 3SM BR BKN002
     FM241900 17004KT P6SM SCT050 BKN200
     FM250500 VRB03KT 1 1/2SM BR BKN250=



000
FTUS46 KPQR 241626 AAA
TAFSLE
TAF AMD
KSLE 241626Z 2416/2512 16004KT P6SM SCT060
     FM241800 VRB03KT P6SM BKN050
     FM242000 16004KT P6SM SCT050 BKN200
     FM250400 00000KT P6SM BKN250=



000
FTUS46 KPQR 241626 AAA
TAFSLE
TAF AMD
KSLE 241626Z 2416/2512 16004KT P6SM SCT060
     FM241800 VRB03KT P6SM BKN050
     FM242000 16004KT P6SM SCT050 BKN200
     FM250400 00000KT P6SM BKN250=



000
FTUS46 KPQR 241605 AAD
TAFPDX
TAF AMD
KPDX 241605Z 2416/2512 07005KT P6SM FEW028 SCT035 OVC070
      TEMPO 2416/2418 3SM -RA BR BKN015 OVC030
     FM242200 14004KT P6SM SCT050 BKN150
     FM250700 VRB03KT P6SM SCT010 SCT250=



000
FTUS46 KPQR 241605 AAD
TAFPDX
TAF AMD
KPDX 241605Z 2416/2512 07005KT P6SM FEW028 SCT035 OVC070
      TEMPO 2416/2418 3SM -RA BR BKN015 OVC030
     FM242200 14004KT P6SM SCT050 BKN150
     FM250700 VRB03KT P6SM SCT010 SCT250=



000
FTUS46 KPQR 241542 AAC
TAFAST
TAF AMD
KAST 241542Z 2416/2512 20008KT 4SM -SHRA BR SCT002 OVC015
      TEMPO 2416/2417 1SM -RA BR BKN002
     FM242200 21006KT P6SM SCT015 BKN035
     FM250700 15004KT 4SM BR OVC015
     FM250800 VRB03KT 4SM BR BKN007=



000
FTUS46 KPQR 241542 AAC
TAFAST
TAF AMD
KAST 241542Z 2416/2512 20008KT 4SM -SHRA BR SCT002 OVC015
      TEMPO 2416/2417 1SM -RA BR BKN002
     FM242200 21006KT P6SM SCT015 BKN035
     FM250700 15004KT 4SM BR OVC015
     FM250800 VRB03KT 4SM BR BKN007=



000
FTUS46 KPQR 241542 AAC
TAFAST
TAF AMD
KAST 241542Z 2416/2512 20008KT 4SM -SHRA BR SCT002 OVC015
      TEMPO 2416/2417 1SM -RA BR BKN002
     FM242200 21006KT P6SM SCT015 BKN035
     FM250700 15004KT 4SM BR OVC015
     FM250800 VRB03KT 4SM BR BKN007=



000
FTUS46 KPQR 241542 AAC
TAFAST
TAF AMD
KAST 241542Z 2416/2512 20008KT 4SM -SHRA BR SCT002 OVC015
      TEMPO 2416/2417 1SM -RA BR BKN002
     FM242200 21006KT P6SM SCT015 BKN035
     FM250700 15004KT 4SM BR OVC015
     FM250800 VRB03KT 4SM BR BKN007=



000
FTUS46 KPQR 241442 AAC
TAFEUG
TAF AMD
KEUG 241442Z 2415/2512 VRB04KT 4SM BR VCFG SCT002 SCT250
      TEMPO 2415/2418 2SM BR BKN002
     FM241900 17004KT P6SM SCT050 BKN200
     FM250500 VRB03KT 1 1/2SM BR BKN250=



000
FTUS46 KPQR 241442 AAC
TAFEUG
TAF AMD
KEUG 241442Z 2415/2512 VRB04KT 4SM BR VCFG SCT002 SCT250
      TEMPO 2415/2418 2SM BR BKN002
     FM241900 17004KT P6SM SCT050 BKN200
     FM250500 VRB03KT 1 1/2SM BR BKN250=



000
FTUS46 KPQR 241440 AAB
TAFTTD
TAF AMD
KTTD 241440Z 2415/2512 00000KT P6SM BKN035
      TEMPO 2415/2417 BKN015 OVC035
     FM242200 14004KT P6SM SCT050 BKN150
     FM250700 VRB03KT P6SM SCT010 SCT250=



000
FTUS46 KPQR 241440 AAC
TAFPDX
TAF AMD
KPDX 241440Z 2415/2512 07005KT P6SM FEW028 SCT035 OVC070
      TEMPO 2415/2417 BKN015 OVC040
     FM242200 14004KT P6SM SCT050 BKN150
     FM250700 VRB03KT P6SM SCT010 SCT250=



000
FTUS46 KPQR 241439 AAB
TAFHIO
TAF AMD
KHIO 241439Z 2415/2512 20003KT 2SM BR VCSH BKN013 OVC030
     FM242200 00000KT P6SM SCT050 BKN200
     FM250200 00000KT 3SM BR FEW005 BKN200
     FM250500 00000KT 1/2SM FG VV003=



000
FTUS46 KPQR 241439 AAB
TAFHIO
TAF AMD
KHIO 241439Z 2415/2512 20003KT 2SM BR VCSH BKN013 OVC030
     FM242200 00000KT P6SM SCT050 BKN200
     FM250200 00000KT 3SM BR FEW005 BKN200
     FM250500 00000KT 1/2SM FG VV003=



000
FTUS46 KPQR 241405 AAB
TAFAST
TAF AMD
KAST 241405Z 2414/2512 20008KT 4SM -SHRA BR SCT005 OVC015
      TEMPO 2414/2417 1 1/2SM -RA BR BKN005
     FM242200 21006KT P6SM SCT015 BKN035
     FM250700 15004KT 4SM BR OVC015
     FM250800 VRB03KT 4SM BR BKN007=



000
FTUS46 KPQR 241405 AAB
TAFAST
TAF AMD
KAST 241405Z 2414/2512 20008KT 4SM -SHRA BR SCT005 OVC015
      TEMPO 2414/2417 1 1/2SM -RA BR BKN005
     FM242200 21006KT P6SM SCT015 BKN035
     FM250700 15004KT 4SM BR OVC015
     FM250800 VRB03KT 4SM BR BKN007=



000
FTUS46 KPQR 241404 CCA
TAFPDX
TAF COR
KPDX 241404Z 2414/2512 07005KT P6SM FEW028 SCT035 OVC070
      TEMPO 2414/2416 BKN015 OVC040
     FM242200 14004KT P6SM SCT050 BKN150
     FM250700 VRB03KT P6SM SCT010 SCT250=



000
FTUS46 KPQR 241404 CCA
TAFPDX
TAF COR
KPDX 241404Z 2414/2512 07005KT P6SM FEW028 SCT035 OVC070
      TEMPO 2414/2416 BKN015 OVC040
     FM242200 14004KT P6SM SCT050 BKN150
     FM250700 VRB03KT P6SM SCT010 SCT250=



000
FTUS46 KPQR 241404 AAB
TAFPDX
TAF AMD
KPDX 241404Z 2414/2512 07005KT P6SM FEW028 SCT035 OVC070
      TEMPO 2414/2416 BKN020 OVC040
     FM242200 14004KT P6SM SCT050 BKN150
     FM250700 VRB03KT P6SM SCT010 SCT250=



000
FTUS46 KPQR 241328 AAA
TAFAST
TAF AMD
KAST 241328Z 2413/2512 20008KT 4SM -SHRA BR SCT005 OVC015
      TEMPO 2413/2416 1 1/2SM -RA BR
     FM242200 21006KT P6SM SCT015 BKN035
     FM250700 15004KT 4SM BR OVC015
     FM250800 VRB03KT 4SM BR BKN007=



000
FTUS46 KPQR 241328 AAA
TAFAST
TAF AMD
KAST 241328Z 2413/2512 20008KT 4SM -SHRA BR SCT005 OVC015
      TEMPO 2413/2416 1 1/2SM -RA BR
     FM242200 21006KT P6SM SCT015 BKN035
     FM250700 15004KT 4SM BR OVC015
     FM250800 VRB03KT 4SM BR BKN007=



000
FTUS46 KPQR 241325 AAA
TAFONP
TAF AMD
KONP 241325Z 2413/2512 09007KT P6SM BKN200
     FM242100 18005KT P6SM SCT025 BKN200
     FM250600 09006KT P6SM SCT250=



000
FTUS46 KPQR 241325 AAA
TAFONP
TAF AMD
KONP 241325Z 2413/2512 09007KT P6SM BKN200
     FM242100 18005KT P6SM SCT025 BKN200
     FM250600 09006KT P6SM SCT250=



000
FTUS46 KPQR 241325 AAA
TAFHIO
TAF AMD
KHIO 241325Z 2413/2512 20003KT 4SM BR VCSH OVC030
     FM242200 00000KT P6SM SCT050 BKN200
     FM250200 00000KT 3SM BR FEW005 BKN200
     FM250500 00000KT 1/2SM FG VV003=



000
FTUS46 KPQR 241325 AAA
TAFHIO
TAF AMD
KHIO 241325Z 2413/2512 20003KT 4SM BR VCSH OVC030
     FM242200 00000KT P6SM SCT050 BKN200
     FM250200 00000KT 3SM BR FEW005 BKN200
     FM250500 00000KT 1/2SM FG VV003=



000
FTUS46 KPQR 241324 AAA
TAFTTD
TAF AMD
KTTD 241324Z 2413/2512 00000KT P6SM OVC035
     FM242200 14004KT P6SM SCT050 BKN150
     FM250700 VRB03KT P6SM SCT010 SCT250=



000
FTUS46 KPQR 241324 AAA
TAFTTD
TAF AMD
KTTD 241324Z 2413/2512 00000KT P6SM OVC035
     FM242200 14004KT P6SM SCT050 BKN150
     FM250700 VRB03KT P6SM SCT010 SCT250=



000
FTUS46 KPQR 241322 AAB
TAFEUG
TAF AMD
KEUG 241322Z 2413/2512 VRB04KT 1SM BR MIFG SCT250
      TEMPO 2413/2417 1/2SM FG VV002
     FM241900 17004KT P6SM SCT050 BKN200
     FM250500 VRB03KT 1 1/2SM BR BKN250=



000
FTUS46 KPQR 241322 AAB
TAFEUG
TAF AMD
KEUG 241322Z 2413/2512 VRB04KT 1SM BR MIFG SCT250
      TEMPO 2413/2417 1/2SM FG VV002
     FM241900 17004KT P6SM SCT050 BKN200
     FM250500 VRB03KT 1 1/2SM BR BKN250=



000
FTUS46 KPQR 241321 AAA
TAFPDX
TAF AMD
KPDX 241321Z 2413/2512 07005KT P6SM FEW028 SCT035 OVC070
     FM242200 14004KT P6SM SCT050 BKN150
     FM250700 VRB03KT P6SM SCT010 SCT250=



000
FTUS46 KPQR 241321 AAA
TAFPDX
TAF AMD
KPDX 241321Z 2413/2512 07005KT P6SM FEW028 SCT035 OVC070
     FM242200 14004KT P6SM SCT050 BKN150
     FM250700 VRB03KT P6SM SCT010 SCT250=



000
FTUS46 KPQR 241252 AAA
TAFEUG
TAF AMD
KEUG 241252Z 2413/2512 VRB04KT 1SM BR MIFG SCT250
      TEMPO 2413/2417 1/2SM FG VV001
     FM241900 17004KT P6SM SCT050 BKN200
     FM250500 VRB03KT 1 1/2SM BR BKN250=



000
FTUS46 KPQR 241252 AAA
TAFEUG
TAF AMD
KEUG 241252Z 2413/2512 VRB04KT 1SM BR MIFG SCT250
      TEMPO 2413/2417 1/2SM FG VV001
     FM241900 17004KT P6SM SCT050 BKN200
     FM250500 VRB03KT 1 1/2SM BR BKN250=



000
FTUS46 KPQR 241120
TAFTTD
TAF
KTTD 241120Z 2412/2512 VRB03KT P6SM VCSH OVC030
     FM241900 11005KT P6SM OVC050
     FM242200 14004KT P6SM SCT050 BKN150
     FM250700 VRB03KT P6SM SCT010 SCT250=



000
FTUS46 KPQR 241120
TAFTTD
TAF
KTTD 241120Z 2412/2512 VRB03KT P6SM VCSH OVC030
     FM241900 11005KT P6SM OVC050
     FM242200 14004KT P6SM SCT050 BKN150
     FM250700 VRB03KT P6SM SCT010 SCT250=



000
FTUS46 KPQR 241120
TAFEUG
TAF
KEUG 241120Z 2412/2512 VRB04KT 4SM BR MIFG SCT250
      TEMPO 2412/2416 1SM BR
     FM241900 17004KT P6SM SCT050 BKN200
     FM250500 VRB03KT 1 1/2SM BR BKN250=



000
FTUS46 KPQR 241120
TAFAST
TAF
KAST 241120Z 2412/2512 20008KT 4SM BR VCSH SCT005 OVC015
      TEMPO 2412/2414 2SM -RA BR BKN005
     FM242200 21006KT P6SM SCT015 BKN035
     FM250700 15004KT 4SM BR OVC015
     FM250800 VRB03KT 4SM BR BKN007=



000
FTUS46 KPQR 241120
TAFONP
TAF
KONP 241120Z 2412/2512 VRB04KT P6SM SCT001
      TEMPO 2412/2416 00000KT 1SM BR BKN001
     FM242100 18005KT P6SM SCT025 BKN200
     FM250600 09006KT P6SM SCT250=



000
FTUS46 KPQR 241120
TAFSLE
TAF
KSLE 241120Z 2412/2512 16006KT P6SM SCT060
     FM241400 VRB03KT 4SM BR SCT003 SCT060
     FM241800 VRB03KT P6SM BKN050
     FM242000 16004KT P6SM SCT050 BKN200
     FM250400 00000KT P6SM BKN250=



000
FTUS46 KPQR 241120
TAFONP
TAF
KONP 241120Z 2412/2512 VRB04KT P6SM SCT001
      TEMPO 2412/2416 00000KT 1SM BR BKN001
     FM242100 18005KT P6SM SCT025 BKN200
     FM250600 09006KT P6SM SCT250=



000
FTUS46 KPQR 241120
TAFAST
TAF
KAST 241120Z 2412/2512 20008KT 4SM BR VCSH SCT005 OVC015
      TEMPO 2412/2414 2SM -RA BR BKN005
     FM242200 21006KT P6SM SCT015 BKN035
     FM250700 15004KT 4SM BR OVC015
     FM250800 VRB03KT 4SM BR BKN007=



000
FTUS46 KPQR 241120
TAFEUG
TAF
KEUG 241120Z 2412/2512 VRB04KT 4SM BR MIFG SCT250
      TEMPO 2412/2416 1SM BR
     FM241900 17004KT P6SM SCT050 BKN200
     FM250500 VRB03KT 1 1/2SM BR BKN250=



000
FTUS46 KPQR 241120
TAFHIO
TAF
KHIO 241120Z 2412/2512 00000KT 2SM BR VCSH SCT003 OVC027
     FM241900 00000KT 3SM BR SCT008 OVC012
     FM242200 00000KT P6SM SCT050 BKN200
     FM250200 00000KT 3SM BR FEW005 BKN200
     FM250500 00000KT 1/2SM FG VV003=



000
FTUS46 KPQR 241120
TAFPDX
TAF
KPDX 241120Z 2412/2512 VRB03KT P6SM VCSH OVC030
     FM241900 11005KT P6SM OVC050
     FM242200 14004KT P6SM SCT050 BKN150
     FM250700 VRB03KT P6SM SCT010 SCT250=



000
FTUS46 KPQR 241120
TAFPDX
TAF
KPDX 241120Z 2412/2512 VRB03KT P6SM VCSH OVC030
     FM241900 11005KT P6SM OVC050
     FM242200 14004KT P6SM SCT050 BKN150
     FM250700 VRB03KT P6SM SCT010 SCT250=



000
FTUS46 KPQR 241120
TAFHIO
TAF
KHIO 241120Z 2412/2512 00000KT 2SM BR VCSH SCT003 OVC027
     FM241900 00000KT 3SM BR SCT008 OVC012
     FM242200 00000KT P6SM SCT050 BKN200
     FM250200 00000KT 3SM BR FEW005 BKN200
     FM250500 00000KT 1/2SM FG VV003=



000
FTUS46 KPQR 241120
TAFSLE
TAF
KSLE 241120Z 2412/2512 16006KT P6SM SCT060
     FM241400 VRB03KT 4SM BR SCT003 SCT060
     FM241800 VRB03KT P6SM BKN050
     FM242000 16004KT P6SM SCT050 BKN200
     FM250400 00000KT P6SM BKN250=



000
FTUS46 KPQR 241058 CCA
TAFEUG
TAF COR
KEUG 241058Z 2411/2506 VRB04KT 4SM BR MIFG SCT250
      TEMPO 2411/2414 1SM BR
     FM241900 17004KT P6SM SCT050 BKN200
     FM250500 VRB03KT 1 1/2SM BR BKN250=



000
FTUS46 KPQR 241058 CCA
TAFEUG
TAF COR
KEUG 241058Z 2411/2506 VRB04KT 4SM BR MIFG SCT250
      TEMPO 2411/2414 1SM BR
     FM241900 17004KT P6SM SCT050 BKN200
     FM250500 VRB03KT 1 1/2SM BR BKN250=



000
FTUS46 KPQR 241057 AAA
TAFEUG
TAF AMD
KEUG 241057Z 2411/2506 VRB04KT 4SM BR MIFG SCT250
     FM241900 17004KT P6SM SCT050 BKN200
     FM250500 VRB03KT 1 1/2SM BR BKN250=



000
FTUS46 KPQR 241057 AAA
TAFEUG
TAF AMD
KEUG 241057Z 2411/2506 VRB04KT 4SM BR MIFG SCT250
     FM241900 17004KT P6SM SCT050 BKN200
     FM250500 VRB03KT 1 1/2SM BR BKN250=



000
FTUS46 KPQR 241055 AAA
TAFSLE
TAF AMD
KSLE 241055Z 2411/2506 16006KT P6SM SCT060
     FM241400 VRB03KT 4SM BR SCT003 SCT060
     FM241800 VRB03KT P6SM BKN050
     FM242000 16004KT P6SM SCT050 BKN200=



000
FTUS46 KPQR 241055 AAA
TAFSLE
TAF AMD
KSLE 241055Z 2411/2506 16006KT P6SM SCT060
     FM241400 VRB03KT 4SM BR SCT003 SCT060
     FM241800 VRB03KT P6SM BKN050
     FM242000 16004KT P6SM SCT050 BKN200=



000
FTUS46 KPQR 241053 AAA
TAFTTD
TAF AMD
KTTD 241053Z 2411/2506 VRB03KT P6SM VCSH OVC030
     FM241900 08006KT P6SM OVC050
     FM242200 08006KT P6SM SCT050 BKN200=



000
FTUS46 KPQR 241053 AAA
TAFTTD
TAF AMD
KTTD 241053Z 2411/2506 VRB03KT P6SM VCSH OVC030
     FM241900 08006KT P6SM OVC050
     FM242200 08006KT P6SM SCT050 BKN200=



000
FTUS46 KPQR 241052 AAB
TAFHIO
TAF AMD
KHIO 241052Z 2411/2506 00000KT 2SM BR VCSH SCT003 OVC027
     FM241900 00000KT 3SM BR SCT008 OVC012
     FM242200 00000KT P6SM SCT050 BKN200
     FM250400 00000KT 3SM BR FEW005 BKN200
     FM250500 00000KT 1/2SM FG VV003=



000
FTUS46 KPQR 241052 AAB
TAFHIO
TAF AMD
KHIO 241052Z 2411/2506 00000KT 2SM BR VCSH SCT003 OVC027
     FM241900 00000KT 3SM BR SCT008 OVC012
     FM242200 00000KT P6SM SCT050 BKN200
     FM250400 00000KT 3SM BR FEW005 BKN200
     FM250500 00000KT 1/2SM FG VV003=



000
FTUS46 KPQR 241049 AAB
TAFPDX
TAF AMD
KPDX 241049Z 2411/2506 VRB03KT P6SM VCSH OVC030
     FM241900 11005KT P6SM OVC050
     FM242200 14004KT P6SM SCT050 BKN200=



000
FTUS46 KPQR 241049 AAB
TAFPDX
TAF AMD
KPDX 241049Z 2411/2506 VRB03KT P6SM VCSH OVC030
     FM241900 11005KT P6SM OVC050
     FM242200 14004KT P6SM SCT050 BKN200=



000
FTUS46 KPQR 241048 AAA
TAFONP
TAF AMD
KONP 241048Z 2411/2506 VRB04KT P6SM SCT001
      TEMPO 2412/2416 00000KT 1SM BR BKN001
     FM242100 18005KT P6SM SCT025 BKN200=



000
FTUS46 KPQR 241048 AAA
TAFONP
TAF AMD
KONP 241048Z 2411/2506 VRB04KT P6SM SCT001
      TEMPO 2412/2416 00000KT 1SM BR BKN001
     FM242100 18005KT P6SM SCT025 BKN200=



000
FTUS46 KPQR 241046 AAA
TAFAST
TAF AMD
KAST 241046Z 2411/2506 20011KT 4SM BR VCSH SCT005 OVC015
      TEMPO 2411/2412 2SM -RA BR BKN005
     FM242200 21006KT P6SM SCT015 BKN035=



000
FTUS46 KPQR 241046 AAA
TAFAST
TAF AMD
KAST 241046Z 2411/2506 20011KT 4SM BR VCSH SCT005 OVC015
      TEMPO 2411/2412 2SM -RA BR BKN005
     FM242200 21006KT P6SM SCT015 BKN035=



000
FTUS46 KPQR 240849 AAA
TAFPDX
TAF AMD
KPDX 240849Z 2409/2506 11007KT P6SM VCSH OVC026
     FM241300 11005KT P6SM VCSH OVC035
     FM241900 11005KT P6SM OVC050
     FM242200 14004KT P6SM SCT050 BKN200=



000
FTUS46 KPQR 240849 AAA
TAFPDX
TAF AMD
KPDX 240849Z 2409/2506 11007KT P6SM VCSH OVC026
     FM241300 11005KT P6SM VCSH OVC035
     FM241900 11005KT P6SM OVC050
     FM242200 14004KT P6SM SCT050 BKN200=



000
FTUS46 KPQR 240641 AAA
TAFHIO
TAF AMD
KHIO 240641Z 2407/2506 00000KT 1 1/2SM BR VCSH BKN005 OVC011
     FM241900 00000KT 3SM BR SCT008 OVC012
     FM242200 00000KT P6SM SCT050 BKN200
     FM250400 00000KT 3SM BR FEW005 BKN200=



000
FTUS46 KPQR 240641 AAA
TAFHIO
TAF AMD
KHIO 240641Z 2407/2506 00000KT 1 1/2SM BR VCSH BKN005 OVC011
     FM241900 00000KT 3SM BR SCT008 OVC012
     FM242200 00000KT P6SM SCT050 BKN200
     FM250400 00000KT 3SM BR FEW005 BKN200=



000
FTUS46 KPQR 240542
TAFEUG
TAF
KEUG 240542Z 2406/2506 VRB03KT P6SM OVC050
     FM241200 16004KT 4SM BR SCT003 BKN050
     FM241900 17004KT P6SM SCT050 BKN200=



000
FTUS46 KPQR 240542
TAFTTD
TAF
KTTD 240542Z 2406/2506 08008KT P6SM OVC030
     FM241200 08008KT P6SM VCSH OVC035
     FM241900 08006KT P6SM OVC050
     FM242200 08006KT P6SM SCT050 BKN200=



000
FTUS46 KPQR 240542
TAFSLE
TAF
KSLE 240542Z 2406/2506 16006KT P6SM OVC035
     FM241400 VRB03KT 4SM BR SCT003 BKN040
     FM241800 VRB03KT P6SM BKN050
     FM242000 16004KT P6SM SCT050 BKN200=



000
FTUS46 KPQR 240542
TAFPDX
TAF
KPDX 240542Z 2406/2506 11007KT P6SM VCSH OVC030
     FM241300 11005KT P6SM VCSH OVC035
     FM241900 11005KT P6SM OVC050
     FM242200 14004KT P6SM SCT050 BKN200=



000
FTUS46 KPQR 240542
TAFAST
TAF
KAST 240542Z 2406/2506 20012G24KT 2SM -RA BR SCT008 OVC015
      TEMPO 2406/2410 BKN008
     FM241400 20011KT 4SM BR VCSH SCT008 OVC015
     FM242200 21006KT P6SM SCT015 BKN035=



000
FTUS46 KPQR 240542
TAFTTD
TAF
KTTD 240542Z 2406/2506 08008KT P6SM OVC030
     FM241200 08008KT P6SM VCSH OVC035
     FM241900 08006KT P6SM OVC050
     FM242200 08006KT P6SM SCT050 BKN200=



000
FTUS46 KPQR 240542
TAFEUG
TAF
KEUG 240542Z 2406/2506 VRB03KT P6SM OVC050
     FM241200 16004KT 4SM BR SCT003 BKN050
     FM241900 17004KT P6SM SCT050 BKN200=



000
FTUS46 KPQR 240542
TAFONP
TAF
KONP 240542Z 2406/2506 VRB03KT P6SM OVC035
     FM241200 18004KT 3SM BR SCT008 BKN025
     FM242100 18005KT P6SM SCT025 BKN200=



000
FTUS46 KPQR 240542
TAFSLE
TAF
KSLE 240542Z 2406/2506 16006KT P6SM OVC035
     FM241400 VRB03KT 4SM BR SCT003 BKN040
     FM241800 VRB03KT P6SM BKN050
     FM242000 16004KT P6SM SCT050 BKN200=



000
FTUS46 KPQR 240542
TAFHIO
TAF
KHIO 240542Z 2406/2506 VRB03KT 3SM BR VCSH SCT006 OVC015
     FM241100 00000KT 1 1/2SM BR VCSH BKN005 OVC011
     FM241900 00000KT 3SM BR SCT008 OVC012
     FM242200 00000KT P6SM SCT050 BKN200
     FM250400 00000KT 3SM BR FEW005 BKN200=



000
FTUS46 KPQR 240542
TAFPDX
TAF
KPDX 240542Z 2406/2506 11007KT P6SM VCSH OVC030
     FM241300 11005KT P6SM VCSH OVC035
     FM241900 11005KT P6SM OVC050
     FM242200 14004KT P6SM SCT050 BKN200=



000
FTUS46 KPQR 240542
TAFHIO
TAF
KHIO 240542Z 2406/2506 VRB03KT 3SM BR VCSH SCT006 OVC015
     FM241100 00000KT 1 1/2SM BR VCSH BKN005 OVC011
     FM241900 00000KT 3SM BR SCT008 OVC012
     FM242200 00000KT P6SM SCT050 BKN200
     FM250400 00000KT 3SM BR FEW005 BKN200=



000
FTUS46 KPQR 240542
TAFAST
TAF
KAST 240542Z 2406/2506 20012G24KT 2SM -RA BR SCT008 OVC015
      TEMPO 2406/2410 BKN008
     FM241400 20011KT 4SM BR VCSH SCT008 OVC015
     FM242200 21006KT P6SM SCT015 BKN035=



000
FTUS46 KPQR 240542
TAFONP
TAF
KONP 240542Z 2406/2506 VRB03KT P6SM OVC035
     FM241200 18004KT 3SM BR SCT008 BKN025
     FM242100 18005KT P6SM SCT025 BKN200=



000
FTUS46 KPQR 240401 AAA
TAFHIO
TAF AMD
KHIO 240401Z 2404/2424 21004KT 3SM -RA BR OVC025
     FM241000 00000KT 1 1/2SM BR VCSH SCT003 OVC011
     FM242100 00000KT 4SM BR VCSH SCT007 BKN050=



000
FTUS46 KPQR 240401 AAA
TAFHIO
TAF AMD
KHIO 240401Z 2404/2424 21004KT 3SM -RA BR OVC025
     FM241000 00000KT 1 1/2SM BR VCSH SCT003 OVC011
     FM242100 00000KT 4SM BR VCSH SCT007 BKN050=



    US Dept of Commerce
    National Oceanic and Atmospheric Administration
    National Weather Service
    1325 East West Highway
    Silver Spring, MD 20910
    Page Author: NWS Internet Services Team
Disclaimer
Information Quality
Credits
Glossary
Privacy Policy
Freedom of Information Act (FOIA)
About Us
Career Opportunities